TSC339 EGKK-CYUL
Flight info
| Callsign | TSC339 |
|---|---|
| Flight time | 7h 0m |
| Altitude | 32000 |
| Route | NOVMA L620 SAM N19 ADKIK DCT MOPAT DCT DOGAL/M076F330 DCT 55N020W 55N030W 55N040W 54N050W DCT NEEKO/N0442F340 N622E TAFFY DCT ATENE DCT KEBIG ROCKT3 |
| Aircraft | A21N/M-SDE2E3FGHIRWXY/LB1 |
Departure
| Time | 2026-05-04 17:34 |
|---|---|
| Airport | London Gatwick Airport (EGKK) |
Arrival
| Time | 2026-05-05 00:34 |
|---|---|
| Airport | Montreal / Pierre Elliott Trudeau International Airport (CYUL) |
| Time | Latitude | Longitude | Altitude | Speed | Heading |
|---|---|---|---|---|---|
| 2026-05-04 16:26 | 51.15828 | -0.17628 | 213 ft | 0 kts | 347° |
| 2026-05-04 17:17 | 51.15827 | -0.17628 | 209 ft | 2 kts | 347° |
| 2026-05-04 17:17 | 51.15758 | -0.17601 | 215 ft | 5 kts | 319° |
| 2026-05-04 17:18 | 51.15752 | -0.17574 | 218 ft | 3 kts | 257° |
| 2026-05-04 17:18 | 51.15757 | -0.17539 | 215 ft | 2 kts | 257° |
| 2026-05-04 17:22 | 51.15756 | -0.17540 | 215 ft | 1 kts | 257° |
| 2026-05-04 17:22 | 51.15755 | -0.17553 | 209 ft | 3 kts | 257° |
| 2026-05-04 17:23 | 51.15721 | -0.17794 | 209 ft | 12 kts | 259° |
| 2026-05-04 17:23 | 51.15704 | -0.17930 | 217 ft | 13 kts | 258° |
| 2026-05-04 17:23 | 51.15662 | -0.18227 | 217 ft | 14 kts | 257° |
| 2026-05-04 17:24 | 51.15640 | -0.18387 | 209 ft | 15 kts | 257° |
| 2026-05-04 17:24 | 51.15554 | -0.18824 | 217 ft | 11 kts | 193° |
| 2026-05-04 17:25 | 51.15476 | -0.18802 | 209 ft | 12 kts | 167° |
| 2026-05-04 17:25 | 51.15302 | -0.18741 | 209 ft | 14 kts | 167° |
| 2026-05-04 17:26 | 51.15137 | -0.18722 | 211 ft | 12 kts | 232° |
| 2026-05-04 17:26 | 51.15074 | -0.19142 | 209 ft | 14 kts | 257° |
| 2026-05-04 17:27 | 51.15029 | -0.19465 | 210 ft | 16 kts | 258° |
| 2026-05-04 17:27 | 51.14981 | -0.19817 | 213 ft | 17 kts | 257° |
| 2026-05-04 17:28 | 51.14929 | -0.20192 | 214 ft | 18 kts | 257° |
| 2026-05-04 17:29 | 51.14846 | -0.20794 | 209 ft | 19 kts | 258° |
| 2026-05-04 17:29 | 51.14779 | -0.21214 | 213 ft | 9 kts | 258° |
| 2026-05-04 17:30 | 51.14741 | -0.21394 | 209 ft | 4 kts | 212° |
| 2026-05-04 17:31 | 51.14732 | -0.21399 | 209 ft | 3 kts | 193° |
| 2026-05-04 17:31 | 51.14626 | -0.21330 | 209 ft | 0 kts | 168° |
| 2026-05-04 17:33 | 51.14530 | -0.21242 | 210 ft | 13 kts | 122° |
| 2026-05-04 17:33 | 51.14537 | -0.21040 | 209 ft | 34 kts | 78° |
| 2026-05-04 17:34 | 51.15074 | -0.17069 | 746 ft | 164 kts | 77° |
| 2026-05-04 17:34 | 51.15311 | -0.15276 | 1431 ft | 166 kts | 77° |
| 2026-05-04 17:35 | 51.16126 | -0.09260 | 2655 ft | 205 kts | 76° |
| 2026-05-04 17:35 | 51.17762 | -0.05452 | 3459 ft | 230 kts | 23° |
| 2026-05-04 17:35 | 51.19325 | -0.04946 | 4186 ft | 233 kts | 356° |
| 2026-05-04 17:36 | 51.20949 | -0.05567 | 4656 ft | 248 kts | 338° |
| 2026-05-04 17:36 | 51.22332 | -0.07195 | 5312 ft | 253 kts | 306° |
| 2026-05-04 17:36 | 51.22982 | -0.09832 | 5787 ft | 266 kts | 274° |
| 2026-05-04 17:36 | 51.22752 | -0.12788 | 6402 ft | 272 kts | 257° |
| 2026-05-04 17:37 | 51.22297 | -0.15739 | 7080 ft | 275 kts | 256° |
| 2026-05-04 17:37 | 51.21859 | -0.18731 | 7773 ft | 278 kts | 257° |
| 2026-05-04 17:37 | 51.21455 | -0.21756 | 8466 ft | 280 kts | 258° |
| 2026-05-04 17:37 | 51.21070 | -0.24817 | 9152 ft | 283 kts | 258° |
| 2026-05-04 17:38 | 51.20694 | -0.27913 | 9762 ft | 286 kts | 258° |
| 2026-05-04 17:38 | 51.20319 | -0.31044 | 10350 ft | 289 kts | 258° |
| 2026-05-04 17:38 | 51.19946 | -0.34202 | 10966 ft | 291 kts | 258° |
| 2026-05-04 17:38 | 51.19553 | -0.37338 | 11567 ft | 294 kts | 257° |
| 2026-05-04 17:39 | 51.18696 | -0.43811 | 12774 ft | 300 kts | 257° |
| 2026-05-04 17:39 | 51.18263 | -0.47079 | 13373 ft | 303 kts | 258° |
| 2026-05-04 17:39 | 51.17830 | -0.50378 | 13964 ft | 306 kts | 258° |
| 2026-05-04 17:40 | 51.17326 | -0.53678 | 14489 ft | 308 kts | 251° |
| 2026-05-04 17:40 | 51.16544 | -0.56866 | 14809 ft | 319 kts | 246° |
| 2026-05-04 17:40 | 51.15647 | -0.60185 | 15035 ft | 333 kts | 246° |
| 2026-05-04 17:40 | 51.14708 | -0.63645 | 15255 ft | 348 kts | 246° |
| 2026-05-04 17:41 | 51.13742 | -0.67231 | 15645 ft | 355 kts | 246° |
| 2026-05-04 17:41 | 51.12768 | -0.70867 | 16179 ft | 359 kts | 246° |
| 2026-05-04 17:41 | 51.11788 | -0.74533 | 16737 ft | 361 kts | 246° |
| 2026-05-04 17:41 | 51.10960 | -0.77616 | 17191 ft | 364 kts | 246° |
| 2026-05-04 17:42 | 51.09960 | -0.81332 | 17733 ft | 367 kts | 246° |
| 2026-05-04 17:42 | 51.08951 | -0.85080 | 18271 ft | 370 kts | 246° |
| 2026-05-04 17:42 | 51.07935 | -0.88851 | 18748 ft | 372 kts | 246° |
| 2026-05-04 17:42 | 51.06911 | -0.92649 | 19224 ft | 374 kts | 246° |
| 2026-05-04 17:43 | 51.05882 | -0.96457 | 19703 ft | 376 kts | 245° |
| 2026-05-04 17:43 | 51.04847 | -1.00283 | 20206 ft | 377 kts | 245° |
| 2026-05-04 17:43 | 51.03809 | -1.04120 | 20682 ft | 379 kts | 245° |
| 2026-05-04 17:43 | 51.02760 | -1.07981 | 21156 ft | 381 kts | 245° |
| 2026-05-04 17:44 | 51.01705 | -1.11856 | 21626 ft | 383 kts | 245° |
| 2026-05-04 17:44 | 51.00646 | -1.15748 | 22073 ft | 386 kts | 245° |
| 2026-05-04 17:44 | 50.99577 | -1.19665 | 22520 ft | 387 kts | 245° |
| 2026-05-04 17:44 | 50.98500 | -1.23599 | 22973 ft | 389 kts | 245° |
| 2026-05-04 17:45 | 50.97421 | -1.27550 | 23403 ft | 392 kts | 244° |
| 2026-05-04 17:45 | 50.96333 | -1.31524 | 23786 ft | 394 kts | 244° |
| 2026-05-04 17:45 | 50.95380 | -1.35610 | 24145 ft | 397 kts | 253° |
| 2026-05-04 17:45 | 50.94780 | -1.39898 | 24513 ft | 400 kts | 256° |
| 2026-05-04 17:46 | 50.94243 | -1.44227 | 24919 ft | 400 kts | 256° |
| 2026-05-04 17:46 | 50.93709 | -1.48565 | 25318 ft | 401 kts | 256° |
| 2026-05-04 17:46 | 50.93164 | -1.52896 | 25681 ft | 402 kts | 255° |
| 2026-05-04 17:46 | 50.92608 | -1.57243 | 26021 ft | 403 kts | 255° |
| 2026-05-04 17:47 | 50.92046 | -1.61611 | 26348 ft | 405 kts | 255° |
| 2026-05-04 17:47 | 50.91484 | -1.65993 | 26668 ft | 407 kts | 255° |
| 2026-05-04 17:47 | 50.90915 | -1.70388 | 26985 ft | 408 kts | 255° |
| 2026-05-04 17:47 | 50.90338 | -1.74800 | 27301 ft | 410 kts | 255° |
| 2026-05-04 17:48 | 50.89756 | -1.79230 | 27615 ft | 412 kts | 255° |
| 2026-05-04 17:48 | 50.89171 | -1.83677 | 27902 ft | 413 kts | 255° |
| 2026-05-04 17:48 | 50.88583 | -1.88138 | 28255 ft | 415 kts | 255° |
| 2026-05-04 17:48 | 50.87996 | -1.92628 | 28501 ft | 418 kts | 254° |
| 2026-05-04 17:49 | 50.87400 | -1.97146 | 28764 ft | 420 kts | 254° |
| 2026-05-04 17:49 | 50.86803 | -2.01677 | 29027 ft | 422 kts | 254° |
| 2026-05-04 17:49 | 50.86196 | -2.06230 | 29294 ft | 424 kts | 254° |
| 2026-05-04 17:49 | 50.85590 | -2.10811 | 29549 ft | 426 kts | 253° |
| 2026-05-04 17:50 | 50.84977 | -2.15406 | 29785 ft | 428 kts | 253° |
| 2026-05-04 17:50 | 50.84359 | -2.20021 | 30036 ft | 430 kts | 253° |
| 2026-05-04 17:50 | 50.83738 | -2.24655 | 30246 ft | 431 kts | 253° |
| 2026-05-04 17:50 | 50.83113 | -2.29301 | 30441 ft | 433 kts | 253° |
| 2026-05-04 17:51 | 50.82478 | -2.33966 | 30638 ft | 435 kts | 253° |
| 2026-05-04 17:51 | 50.81844 | -2.38647 | 30867 ft | 436 kts | 254° |
| 2026-05-04 17:51 | 50.81207 | -2.43333 | 31099 ft | 436 kts | 254° |
| 2026-05-04 17:51 | 50.80568 | -2.48019 | 31325 ft | 436 kts | 255° |
| 2026-05-04 17:52 | 50.80135 | -2.52782 | 31536 ft | 441 kts | 263° |
| 2026-05-04 17:52 | 50.80259 | -2.57642 | 31732 ft | 446 kts | 275° |
| 2026-05-04 17:52 | 50.80939 | -2.62443 | 31948 ft | 449 kts | 282° |
| 2026-05-04 17:52 | 50.81778 | -2.67134 | 32033 ft | 450 kts | 283° |
| 2026-05-04 17:53 | 50.83496 | -2.76646 | 32019 ft | 450 kts | 283° |
| 2026-05-04 17:53 | 50.85151 | -2.86175 | 32025 ft | 449 kts | 283° |
| 2026-05-04 17:54 | 50.86807 | -2.95707 | 32016 ft | 449 kts | 283° |
| 2026-05-04 17:54 | 50.88469 | -3.05248 | 32013 ft | 449 kts | 283° |
| 2026-05-04 17:55 | 50.90103 | -3.14797 | 32006 ft | 449 kts | 283° |
| 2026-05-04 17:55 | 50.91726 | -3.24355 | 31998 ft | 449 kts | 283° |
| 2026-05-04 17:56 | 50.93344 | -3.33922 | 32004 ft | 450 kts | 283° |
| 2026-05-04 17:56 | 50.94955 | -3.43505 | 31999 ft | 450 kts | 283° |
| 2026-05-04 17:57 | 50.96550 | -3.53099 | 32002 ft | 450 kts | 283° |
| 2026-05-04 17:57 | 50.98150 | -3.62700 | 32002 ft | 450 kts | 283° |
| 2026-05-04 17:58 | 50.99737 | -3.72304 | 32004 ft | 450 kts | 283° |
| 2026-05-04 17:58 | 51.01318 | -3.81922 | 32013 ft | 451 kts | 283° |
| 2026-05-04 17:59 | 51.02895 | -3.91559 | 32011 ft | 451 kts | 283° |
| 2026-05-04 18:00 | 51.05233 | -4.06039 | 32010 ft | 451 kts | 283° |
| 2026-05-04 18:00 | 51.06786 | -4.15699 | 32012 ft | 451 kts | 283° |
| 2026-05-04 18:01 | 51.08334 | -4.25370 | 32014 ft | 451 kts | 283° |
| 2026-05-04 18:01 | 51.09880 | -4.35058 | 32014 ft | 453 kts | 283° |
| 2026-05-04 18:02 | 51.12170 | -4.49575 | 32018 ft | 453 kts | 283° |
| 2026-05-04 18:02 | 51.13693 | -4.59296 | 32021 ft | 452 kts | 283° |
| 2026-05-04 18:03 | 51.15212 | -4.69016 | 32021 ft | 452 kts | 283° |
| 2026-05-04 18:03 | 51.16724 | -4.78742 | 32025 ft | 453 kts | 284° |
| 2026-05-04 18:04 | 51.18238 | -4.88506 | 32024 ft | 454 kts | 284° |
| 2026-05-04 18:05 | 51.20474 | -5.03172 | 32023 ft | 454 kts | 283° |
| 2026-05-04 18:05 | 51.21956 | -5.12955 | 32027 ft | 454 kts | 283° |
| 2026-05-04 18:06 | 51.24160 | -5.27657 | 32024 ft | 455 kts | 284° |
| 2026-05-04 18:06 | 51.25638 | -5.37470 | 32029 ft | 455 kts | 284° |
| 2026-05-04 18:07 | 51.27100 | -5.47296 | 32029 ft | 455 kts | 284° |
| 2026-05-04 18:07 | 51.28551 | -5.57126 | 32033 ft | 455 kts | 283° |
| 2026-05-04 18:08 | 51.29746 | -5.65300 | 32035 ft | 455 kts | 283° |
| 2026-05-04 18:08 | 51.31180 | -5.75142 | 32039 ft | 455 kts | 284° |
| 2026-05-04 18:09 | 51.34037 | -5.94941 | 32041 ft | 457 kts | 284° |
| 2026-05-04 18:10 | 51.35438 | -6.04857 | 32042 ft | 457 kts | 284° |
| 2026-05-04 18:10 | 51.36851 | -6.14778 | 32044 ft | 457 kts | 284° |
| 2026-05-04 18:11 | 51.38268 | -6.24696 | 32046 ft | 458 kts | 284° |
| 2026-05-04 18:11 | 51.39671 | -6.34679 | 32051 ft | 460 kts | 284° |
| 2026-05-04 18:12 | 51.41064 | -6.44714 | 32044 ft | 463 kts | 285° |
| 2026-05-04 18:12 | 51.42459 | -6.54800 | 32050 ft | 464 kts | 285° |
| 2026-05-04 18:13 | 51.43845 | -6.64902 | 32054 ft | 464 kts | 285° |
| 2026-05-04 18:14 | 51.45908 | -6.80014 | 32055 ft | 467 kts | 286° |
| 2026-05-04 18:14 | 51.47281 | -6.90200 | 32059 ft | 467 kts | 286° |
| 2026-05-04 18:15 | 51.50339 | -7.10395 | 32064 ft | 461 kts | 298° |
| 2026-05-04 18:16 | 51.53447 | -7.19286 | 32069 ft | 456 kts | 306° |
| 2026-05-04 18:16 | 51.56703 | -7.28025 | 32066 ft | 455 kts | 306° |
| 2026-05-04 18:17 | 51.61530 | -7.41150 | 32061 ft | 454 kts | 306° |
| 2026-05-04 18:18 | 51.66310 | -7.54313 | 32083 ft | 454 kts | 306° |
| 2026-05-04 18:18 | 51.69492 | -7.63104 | 32085 ft | 454 kts | 306° |
| 2026-05-04 18:19 | 51.74274 | -7.76301 | 32080 ft | 454 kts | 306° |
| 2026-05-04 18:19 | 51.77435 | -7.85094 | 32070 ft | 452 kts | 306° |
| 2026-05-04 18:20 | 51.80571 | -7.93868 | 32068 ft | 450 kts | 305° |
| 2026-05-04 18:20 | 51.83674 | -8.02647 | 32078 ft | 450 kts | 305° |
| 2026-05-04 18:21 | 51.86784 | -8.11431 | 32078 ft | 450 kts | 305° |
| 2026-05-04 18:21 | 51.89867 | -8.20163 | 32079 ft | 450 kts | 305° |
| 2026-05-04 18:22 | 51.93000 | -8.29010 | 32081 ft | 450 kts | 305° |
| 2026-05-04 18:22 | 51.96085 | -8.37728 | 32077 ft | 447 kts | 305° |
| 2026-05-04 18:23 | 51.99192 | -8.46457 | 32086 ft | 446 kts | 304° |
| 2026-05-04 18:23 | 52.02254 | -8.55192 | 32098 ft | 445 kts | 304° |
| 2026-05-04 18:24 | 52.05304 | -8.63943 | 32092 ft | 445 kts | 304° |
| 2026-05-04 18:24 | 52.08346 | -8.72704 | 32104 ft | 445 kts | 304° |
| 2026-05-04 18:25 | 52.11381 | -8.81482 | 32104 ft | 445 kts | 304° |
| 2026-05-04 18:25 | 52.14410 | -8.90267 | 32103 ft | 444 kts | 303° |
| 2026-05-04 18:26 | 52.17418 | -8.99023 | 32112 ft | 443 kts | 303° |
| 2026-05-04 18:26 | 52.20402 | -9.07765 | 32118 ft | 439 kts | 302° |
| 2026-05-04 18:27 | 52.23368 | -9.16469 | 32130 ft | 439 kts | 302° |
| 2026-05-04 18:27 | 52.26332 | -9.25179 | 32133 ft | 439 kts | 302° |
| 2026-05-04 18:28 | 52.29292 | -9.33909 | 32134 ft | 439 kts | 302° |
| 2026-05-04 18:28 | 52.32236 | -9.42655 | 32143 ft | 439 kts | 302° |
| 2026-05-04 18:29 | 52.35174 | -9.51367 | 32136 ft | 436 kts | 302° |
| 2026-05-04 18:29 | 52.38096 | -9.60078 | 32140 ft | 436 kts | 301° |
| 2026-05-04 18:30 | 52.42426 | -9.73152 | 32147 ft | 435 kts | 301° |
| 2026-05-04 18:31 | 52.45311 | -9.81871 | 32147 ft | 435 kts | 301° |
| 2026-05-04 18:31 | 52.48218 | -9.90572 | 32147 ft | 435 kts | 301° |
| 2026-05-04 18:32 | 52.51102 | -9.99306 | 32151 ft | 435 kts | 301° |
| 2026-05-04 18:32 | 52.53971 | -10.08041 | 32151 ft | 434 kts | 300° |
| 2026-05-04 18:33 | 52.56836 | -10.16762 | 32155 ft | 434 kts | 300° |
| 2026-05-04 18:33 | 52.59674 | -10.25453 | 32153 ft | 430 kts | 300° |
| 2026-05-04 18:34 | 52.62502 | -10.34119 | 32159 ft | 431 kts | 299° |
| 2026-05-04 18:34 | 52.65303 | -10.42762 | 32161 ft | 431 kts | 299° |
| 2026-05-04 18:35 | 52.68138 | -10.51541 | 32160 ft | 431 kts | 299° |
| 2026-05-04 18:35 | 52.70919 | -10.60216 | 32159 ft | 430 kts | 299° |
| 2026-05-04 18:36 | 52.73724 | -10.68931 | 32159 ft | 430 kts | 299° |
| 2026-05-04 18:36 | 52.76510 | -10.77679 | 32165 ft | 431 kts | 298° |
| 2026-05-04 18:37 | 52.79294 | -10.86410 | 32163 ft | 429 kts | 298° |
| 2026-05-04 18:37 | 52.82070 | -10.95123 | 32165 ft | 427 kts | 298° |
| 2026-05-04 18:38 | 52.84825 | -11.03835 | 32169 ft | 428 kts | 298° |
| 2026-05-04 18:38 | 52.87575 | -11.12565 | 32168 ft | 429 kts | 298° |
| 2026-05-04 18:39 | 52.90323 | -11.21323 | 32168 ft | 428 kts | 298° |
| 2026-05-04 18:39 | 52.93050 | -11.30062 | 32171 ft | 426 kts | 298° |
| 2026-05-04 18:40 | 52.95773 | -11.38789 | 32170 ft | 427 kts | 298° |
| 2026-05-04 18:40 | 52.98485 | -11.47527 | 32174 ft | 426 kts | 298° |
| 2026-05-04 18:41 | 53.01184 | -11.56268 | 32175 ft | 425 kts | 297° |
| 2026-05-04 18:41 | 53.03878 | -11.65018 | 32174 ft | 425 kts | 297° |
| 2026-05-04 18:42 | 53.06567 | -11.73772 | 32181 ft | 425 kts | 297° |
| 2026-05-04 18:42 | 53.09246 | -11.82564 | 32177 ft | 426 kts | 297° |
| 2026-05-04 18:43 | 53.11896 | -11.91276 | 32184 ft | 426 kts | 297° |
| 2026-05-04 18:43 | 53.14567 | -12.00058 | 32187 ft | 424 kts | 297° |
| 2026-05-04 18:44 | 53.17223 | -12.08829 | 32181 ft | 424 kts | 296° |
| 2026-05-04 18:44 | 53.19875 | -12.17609 | 32186 ft | 424 kts | 296° |
| 2026-05-04 18:45 | 53.22524 | -12.26398 | 32186 ft | 424 kts | 296° |
| 2026-05-04 18:45 | 53.25155 | -12.35213 | 32186 ft | 424 kts | 296° |
| 2026-05-04 18:46 | 53.27770 | -12.44038 | 32188 ft | 423 kts | 296° |
| 2026-05-04 18:46 | 53.30389 | -12.52851 | 32189 ft | 423 kts | 296° |
| 2026-05-04 18:47 | 53.33004 | -12.61675 | 32196 ft | 423 kts | 296° |
| 2026-05-04 18:47 | 53.35605 | -12.70486 | 32196 ft | 422 kts | 295° |
| 2026-05-04 18:48 | 53.38190 | -12.79296 | 32191 ft | 422 kts | 295° |
| 2026-05-04 18:48 | 53.40780 | -12.88116 | 32197 ft | 422 kts | 295° |
| 2026-05-04 18:49 | 53.43357 | -12.96946 | 32198 ft | 422 kts | 295° |
| 2026-05-04 18:49 | 53.45915 | -13.05792 | 32195 ft | 421 kts | 295° |
| 2026-05-04 18:50 | 53.48493 | -13.14630 | 32197 ft | 422 kts | 295° |
| 2026-05-04 18:50 | 53.51052 | -13.23489 | 32198 ft | 421 kts | 295° |
| 2026-05-04 18:51 | 53.53603 | -13.32336 | 32201 ft | 420 kts | 294° |
| 2026-05-04 18:51 | 53.56139 | -13.41179 | 32198 ft | 420 kts | 294° |
| 2026-05-04 18:52 | 53.58647 | -13.49979 | 32196 ft | 420 kts | 294° |
| 2026-05-04 18:52 | 53.61165 | -13.58845 | 32197 ft | 420 kts | 294° |
| 2026-05-04 18:53 | 53.63678 | -13.67722 | 32200 ft | 419 kts | 294° |
| 2026-05-04 18:53 | 53.66178 | -13.76602 | 32203 ft | 419 kts | 294° |
| 2026-05-04 18:54 | 53.68679 | -13.85505 | 32476 ft | 420 kts | 294° |
| 2026-05-04 18:54 | 53.69928 | -13.89956 | 32752 ft | 419 kts | 294° |
| 2026-05-04 18:54 | 53.71174 | -13.94405 | 33002 ft | 419 kts | 294° |
| 2026-05-04 18:54 | 53.72414 | -13.98857 | 33198 ft | 419 kts | 294° |
| 2026-05-04 18:55 | 53.73654 | -14.03315 | 33377 ft | 420 kts | 294° |
| 2026-05-04 18:55 | 53.76136 | -14.12242 | 33815 ft | 419 kts | 294° |
| 2026-05-04 18:55 | 53.77368 | -14.16699 | 34016 ft | 419 kts | 294° |
| 2026-05-04 18:56 | 53.78593 | -14.21165 | 34190 ft | 419 kts | 294° |
| 2026-05-04 18:56 | 53.79820 | -14.25645 | 34245 ft | 420 kts | 294° |
| 2026-05-04 18:56 | 53.81867 | -14.33096 | 34229 ft | 420 kts | 294° |
| 2026-05-04 18:57 | 53.84329 | -14.42066 | 34219 ft | 420 kts | 294° |
| 2026-05-04 18:57 | 53.86784 | -14.51033 | 34219 ft | 420 kts | 294° |
| 2026-05-04 18:58 | 53.89226 | -14.60010 | 34222 ft | 419 kts | 293° |
| 2026-05-04 18:58 | 53.91655 | -14.68984 | 34218 ft | 419 kts | 293° |
| 2026-05-04 18:59 | 53.94081 | -14.77964 | 34222 ft | 419 kts | 293° |
| 2026-05-04 18:59 | 53.96497 | -14.86961 | 34225 ft | 419 kts | 293° |
| 2026-05-04 19:00 | 53.98900 | -14.95945 | 34228 ft | 417 kts | 294° |
| 2026-05-04 19:00 | 54.01126 | -15.05005 | 34228 ft | 412 kts | 290° |
| 2026-05-04 19:01 | 54.03162 | -15.14125 | 34231 ft | 412 kts | 290° |
| 2026-05-04 19:01 | 54.05182 | -15.23189 | 34235 ft | 412 kts | 290° |
| 2026-05-04 19:02 | 54.07217 | -15.32310 | 34234 ft | 412 kts | 290° |
| 2026-05-04 19:02 | 54.09242 | -15.41439 | 34230 ft | 412 kts | 290° |
| 2026-05-04 19:03 | 54.11263 | -15.50573 | 34230 ft | 412 kts | 290° |
| 2026-05-04 19:03 | 54.13277 | -15.59702 | 34232 ft | 411 kts | 290° |
| 2026-05-04 19:04 | 54.15279 | -15.68832 | 34241 ft | 411 kts | 290° |
| 2026-05-04 19:04 | 54.17276 | -15.77972 | 34242 ft | 411 kts | 290° |
| 2026-05-04 19:05 | 54.19269 | -15.87120 | 34240 ft | 411 kts | 290° |
| 2026-05-04 19:05 | 54.21252 | -15.96280 | 34249 ft | 411 kts | 290° |
| 2026-05-04 19:06 | 54.23223 | -16.05439 | 34250 ft | 411 kts | 290° |
| 2026-05-04 19:06 | 54.25192 | -16.14611 | 34244 ft | 411 kts | 290° |
| 2026-05-04 19:07 | 54.27151 | -16.23782 | 34251 ft | 410 kts | 290° |
| 2026-05-04 19:07 | 54.29099 | -16.32958 | 34251 ft | 410 kts | 290° |
| 2026-05-04 19:08 | 54.31039 | -16.42145 | 34248 ft | 410 kts | 290° |
| 2026-05-04 19:08 | 54.32974 | -16.51343 | 34248 ft | 410 kts | 290° |
| 2026-05-04 19:09 | 54.34904 | -16.60550 | 34247 ft | 410 kts | 290° |
| 2026-05-04 19:09 | 54.36823 | -16.69762 | 34264 ft | 410 kts | 290° |
| 2026-05-04 19:10 | 54.38721 | -16.78922 | 34255 ft | 410 kts | 290° |
| 2026-05-04 19:10 | 54.40630 | -16.88140 | 34254 ft | 410 kts | 290° |
| 2026-05-04 19:11 | 54.42523 | -16.97366 | 34259 ft | 410 kts | 290° |
| 2026-05-04 19:11 | 54.44418 | -17.06606 | 34260 ft | 410 kts | 290° |
| 2026-05-04 19:12 | 54.47241 | -17.20475 | 34257 ft | 410 kts | 290° |
| 2026-05-04 19:13 | 54.49114 | -17.29737 | 34260 ft | 410 kts | 290° |
| 2026-05-04 19:13 | 54.50979 | -17.39001 | 34259 ft | 410 kts | 290° |
| 2026-05-04 19:14 | 54.52840 | -17.48280 | 34267 ft | 410 kts | 289° |
| 2026-05-04 19:14 | 54.54698 | -17.57581 | 34268 ft | 411 kts | 289° |
| 2026-05-04 19:15 | 54.56541 | -17.66895 | 34268 ft | 411 kts | 289° |
| 2026-05-04 19:15 | 54.58382 | -17.76212 | 34272 ft | 411 kts | 289° |
| 2026-05-04 19:16 | 54.60218 | -17.85543 | 34277 ft | 411 kts | 289° |
| 2026-05-04 19:16 | 54.62046 | -17.94880 | 34277 ft | 411 kts | 289° |
| 2026-05-04 19:17 | 54.63869 | -18.04223 | 34278 ft | 411 kts | 289° |
| 2026-05-04 19:17 | 54.65685 | -18.13589 | 34275 ft | 412 kts | 288° |
| 2026-05-04 19:18 | 54.67497 | -18.22996 | 34280 ft | 413 kts | 288° |
| 2026-05-04 19:18 | 54.69303 | -18.32415 | 34280 ft | 413 kts | 288° |
| 2026-05-04 19:19 | 54.71105 | -18.41842 | 34280 ft | 413 kts | 288° |
| 2026-05-04 19:19 | 54.72888 | -18.51209 | 34286 ft | 413 kts | 288° |
| 2026-05-04 19:20 | 54.74674 | -18.60651 | 34284 ft | 413 kts | 288° |
| 2026-05-04 19:20 | 54.76450 | -18.70103 | 34286 ft | 413 kts | 288° |
| 2026-05-04 19:21 | 54.78222 | -18.79566 | 34290 ft | 413 kts | 288° |
| 2026-05-04 19:21 | 54.79985 | -18.89042 | 34292 ft | 413 kts | 287° |
| 2026-05-04 19:22 | 54.81741 | -18.98526 | 34298 ft | 413 kts | 287° |
| 2026-05-04 19:22 | 54.83491 | -19.08008 | 34291 ft | 412 kts | 287° |
| 2026-05-04 19:23 | 54.85231 | -19.17491 | 34295 ft | 412 kts | 287° |
| 2026-05-04 19:23 | 54.86955 | -19.26985 | 34298 ft | 412 kts | 287° |
| 2026-05-04 19:24 | 54.88673 | -19.36487 | 34298 ft | 412 kts | 287° |
| 2026-05-04 19:24 | 54.90383 | -19.45960 | 34296 ft | 409 kts | 288° |
| 2026-05-04 19:25 | 54.92079 | -19.55396 | 34301 ft | 409 kts | 288° |
| 2026-05-04 19:25 | 54.93770 | -19.64840 | 34302 ft | 409 kts | 288° |
| 2026-05-04 19:26 | 54.95464 | -19.74284 | 34303 ft | 409 kts | 288° |
| 2026-05-04 19:26 | 54.97135 | -19.83728 | 34305 ft | 408 kts | 287° |
| 2026-05-04 19:27 | 54.98796 | -19.93163 | 34307 ft | 408 kts | 287° |
| 2026-05-04 19:27 | 55.00120 | -20.02743 | 34307 ft | 408 kts | 277° |
| 2026-05-04 19:28 | 55.00528 | -20.12567 | 34309 ft | 404 kts | 275° |
| 2026-05-04 19:28 | 55.00887 | -20.22353 | 34310 ft | 405 kts | 275° |
| 2026-05-04 19:29 | 55.01255 | -20.32068 | 34316 ft | 405 kts | 275° |
| 2026-05-04 19:29 | 55.01631 | -20.41846 | 34314 ft | 405 kts | 275° |
| 2026-05-04 19:30 | 55.01992 | -20.51628 | 34314 ft | 405 kts | 275° |
| 2026-05-04 19:30 | 55.02346 | -20.61410 | 34321 ft | 404 kts | 275° |
| 2026-05-04 19:31 | 55.02696 | -20.71173 | 34318 ft | 402 kts | 275° |
| 2026-05-04 19:31 | 55.03036 | -20.80891 | 34321 ft | 402 kts | 275° |
| 2026-05-04 19:32 | 55.03362 | -20.90611 | 34333 ft | 402 kts | 275° |
| 2026-05-04 19:32 | 55.03686 | -21.00318 | 34323 ft | 401 kts | 275° |
| 2026-05-04 19:33 | 55.04003 | -21.10024 | 34326 ft | 401 kts | 274° |
| 2026-05-04 19:33 | 55.04310 | -21.19723 | 34326 ft | 401 kts | 274° |
| 2026-05-04 19:34 | 55.04610 | -21.29429 | 34329 ft | 400 kts | 274° |
| 2026-05-04 19:34 | 55.04902 | -21.39113 | 34333 ft | 400 kts | 274° |
| 2026-05-04 19:35 | 55.05184 | -21.48802 | 34327 ft | 400 kts | 274° |
| 2026-05-04 19:35 | 55.05459 | -21.58492 | 34336 ft | 400 kts | 274° |
| 2026-05-04 19:36 | 55.05725 | -21.68192 | 34335 ft | 400 kts | 274° |
| 2026-05-04 19:36 | 55.05986 | -21.77889 | 34339 ft | 400 kts | 274° |
| 2026-05-04 19:37 | 55.06238 | -21.87522 | 34338 ft | 400 kts | 273° |
| 2026-05-04 19:37 | 55.06481 | -21.97222 | 34340 ft | 400 kts | 273° |
| 2026-05-04 19:38 | 55.06713 | -22.06925 | 34338 ft | 400 kts | 273° |
| 2026-05-04 19:38 | 55.06938 | -22.16634 | 34339 ft | 401 kts | 273° |
| 2026-05-04 19:39 | 55.07168 | -22.26338 | 34350 ft | 400 kts | 273° |
| 2026-05-04 19:39 | 55.07386 | -22.36024 | 34347 ft | 400 kts | 272° |
| 2026-05-04 19:40 | 55.07591 | -22.45718 | 34343 ft | 400 kts | 272° |
| 2026-05-04 19:40 | 55.07793 | -22.55416 | 34346 ft | 400 kts | 272° |
| 2026-05-04 19:41 | 55.07982 | -22.65123 | 34344 ft | 400 kts | 272° |
| 2026-05-04 19:41 | 55.08165 | -22.74833 | 34345 ft | 400 kts | 272° |
| 2026-05-04 19:42 | 55.08337 | -22.84543 | 34347 ft | 400 kts | 272° |
| 2026-05-04 19:42 | 55.08505 | -22.94255 | 34351 ft | 400 kts | 272° |
| 2026-05-04 19:43 | 55.08655 | -23.03967 | 34349 ft | 400 kts | 272° |
| 2026-05-04 19:43 | 55.08801 | -23.13681 | 34348 ft | 400 kts | 272° |
| 2026-05-04 19:44 | 55.08942 | -23.23397 | 34358 ft | 400 kts | 272° |
| 2026-05-04 19:44 | 55.09071 | -23.33113 | 34358 ft | 400 kts | 271° |
| 2026-05-04 19:45 | 55.09207 | -23.42827 | 34357 ft | 400 kts | 272° |
| 2026-05-04 19:45 | 55.09326 | -23.52479 | 34364 ft | 400 kts | 271° |
| 2026-05-04 19:46 | 55.09431 | -23.62195 | 34359 ft | 400 kts | 271° |
| 2026-05-04 19:46 | 55.09527 | -23.71917 | 34359 ft | 400 kts | 271° |
| 2026-05-04 19:47 | 55.09610 | -23.80063 | 34360 ft | 401 kts | 271° |
| 2026-05-04 19:47 | 55.09712 | -23.89721 | 34360 ft | 401 kts | 271° |
| 2026-05-04 19:48 | 55.09778 | -23.99449 | 34361 ft | 401 kts | 271° |
| 2026-05-04 19:48 | 55.09855 | -24.09175 | 34360 ft | 401 kts | 271° |
| 2026-05-04 19:49 | 55.09926 | -24.18903 | 34368 ft | 401 kts | 271° |
| 2026-05-04 19:49 | 55.09999 | -24.28632 | 34362 ft | 401 kts | 270° |
| 2026-05-04 19:50 | 55.10043 | -24.38365 | 34370 ft | 401 kts | 270° |
| 2026-05-04 19:50 | 55.10084 | -24.48098 | 34376 ft | 401 kts | 270° |
| 2026-05-04 19:51 | 55.10117 | -24.57837 | 34373 ft | 401 kts | 270° |
| 2026-05-04 19:51 | 55.10167 | -24.67574 | 34376 ft | 401 kts | 271° |
| 2026-05-04 19:52 | 55.10219 | -24.77307 | 34375 ft | 401 kts | 270° |
| 2026-05-04 19:52 | 55.10238 | -24.87058 | 34378 ft | 402 kts | 270° |
| 2026-05-04 19:53 | 55.10251 | -24.96818 | 34375 ft | 402 kts | 270° |
| 2026-05-04 19:53 | 55.10231 | -25.06584 | 34375 ft | 402 kts | 269° |
| 2026-05-04 19:54 | 55.10207 | -25.16353 | 34375 ft | 402 kts | 269° |
| 2026-05-04 19:54 | 55.10174 | -25.26122 | 34375 ft | 402 kts | 269° |
| 2026-05-04 19:55 | 55.10140 | -25.35886 | 34381 ft | 402 kts | 269° |
| 2026-05-04 19:55 | 55.10112 | -25.45657 | 34381 ft | 402 kts | 269° |
| 2026-05-04 19:56 | 55.10090 | -25.55419 | 34382 ft | 402 kts | 269° |
| 2026-05-04 19:56 | 55.10042 | -25.65188 | 34384 ft | 402 kts | 269° |
| 2026-05-04 19:57 | 55.09970 | -25.74959 | 34384 ft | 402 kts | 269° |
| 2026-05-04 19:57 | 55.09908 | -25.84729 | 34387 ft | 402 kts | 269° |
| 2026-05-04 19:58 | 55.09854 | -25.94500 | 34387 ft | 402 kts | 269° |
| 2026-05-04 19:58 | 55.09776 | -26.04273 | 34387 ft | 402 kts | 269° |
| 2026-05-04 19:59 | 55.09688 | -26.14064 | 34393 ft | 405 kts | 268° |
| 2026-05-04 19:59 | 55.09591 | -26.23924 | 34388 ft | 406 kts | 268° |
| 2026-05-04 20:00 | 55.09492 | -26.33788 | 34388 ft | 407 kts | 268° |
| 2026-05-04 20:00 | 55.09373 | -26.43653 | 34394 ft | 406 kts | 268° |
| 2026-05-04 20:01 | 55.09249 | -26.53446 | 34398 ft | 406 kts | 268° |
| 2026-05-04 20:01 | 55.09116 | -26.63304 | 34396 ft | 406 kts | 268° |
| 2026-05-04 20:02 | 55.08972 | -26.73165 | 34396 ft | 407 kts | 268° |
| 2026-05-04 20:02 | 55.08827 | -26.83048 | 34401 ft | 407 kts | 268° |
| 2026-05-04 20:03 | 55.08685 | -26.92932 | 34401 ft | 408 kts | 268° |
| 2026-05-04 20:03 | 55.08531 | -27.02822 | 34402 ft | 408 kts | 268° |
| 2026-05-04 20:04 | 55.08377 | -27.12716 | 34404 ft | 408 kts | 268° |
| 2026-05-04 20:04 | 55.08189 | -27.22605 | 34404 ft | 408 kts | 268° |
| 2026-05-04 20:05 | 55.08019 | -27.32500 | 34405 ft | 409 kts | 268° |
| 2026-05-04 20:05 | 55.07817 | -27.42444 | 34414 ft | 412 kts | 268° |
| 2026-05-04 20:06 | 55.07604 | -27.52463 | 34404 ft | 414 kts | 268° |
| 2026-05-04 20:06 | 55.07388 | -27.62493 | 34405 ft | 414 kts | 268° |
| 2026-05-04 20:07 | 55.07179 | -27.72523 | 34410 ft | 414 kts | 268° |
| 2026-05-04 20:07 | 55.06953 | -27.82552 | 34413 ft | 414 kts | 268° |
| 2026-05-04 20:08 | 55.06713 | -27.92588 | 34411 ft | 414 kts | 268° |
| 2026-05-04 20:08 | 55.06481 | -28.02642 | 34419 ft | 415 kts | 268° |
| 2026-05-04 20:09 | 55.06219 | -28.12693 | 34413 ft | 415 kts | 268° |
| 2026-05-04 20:09 | 55.05962 | -28.22749 | 34412 ft | 415 kts | 268° |
| 2026-05-04 20:10 | 55.05684 | -28.32804 | 34421 ft | 415 kts | 267° |
| 2026-05-04 20:10 | 55.05411 | -28.42793 | 34418 ft | 415 kts | 267° |
| 2026-05-04 20:11 | 55.05120 | -28.52847 | 34414 ft | 415 kts | 268° |
| 2026-05-04 20:11 | 55.04819 | -28.62900 | 34418 ft | 415 kts | 268° |
| 2026-05-04 20:12 | 55.04518 | -28.72981 | 34426 ft | 418 kts | 268° |
| 2026-05-04 20:12 | 55.04208 | -28.83127 | 34424 ft | 419 kts | 268° |
| 2026-05-04 20:13 | 55.03884 | -28.93285 | 34422 ft | 420 kts | 268° |
| 2026-05-04 20:13 | 55.03548 | -29.03442 | 34422 ft | 420 kts | 268° |
| 2026-05-04 20:14 | 55.03203 | -29.13602 | 34421 ft | 420 kts | 267° |
| 2026-05-04 20:14 | 55.02851 | -29.23755 | 34423 ft | 420 kts | 268° |
| 2026-05-04 20:15 | 55.02492 | -29.33909 | 34424 ft | 420 kts | 267° |
| 2026-05-04 20:15 | 55.02116 | -29.44065 | 34425 ft | 420 kts | 267° |
| 2026-05-04 20:16 | 55.01734 | -29.54223 | 34427 ft | 420 kts | 267° |
| 2026-05-04 20:16 | 55.01359 | -29.64381 | 34425 ft | 420 kts | 267° |
| 2026-05-04 20:17 | 55.00973 | -29.74537 | 34421 ft | 420 kts | 268° |
| 2026-05-04 20:17 | 55.00572 | -29.84701 | 34425 ft | 421 kts | 268° |
| 2026-05-04 20:18 | 55.00163 | -29.94871 | 34431 ft | 421 kts | 268° |
| 2026-05-04 20:18 | 55.00130 | -30.05030 | 34431 ft | 419 kts | 275° |
| 2026-05-04 20:19 | 55.00549 | -30.15158 | 34428 ft | 419 kts | 276° |
| 2026-05-04 20:19 | 55.00955 | -30.25291 | 34434 ft | 419 kts | 275° |
| 2026-05-04 20:20 | 55.01376 | -30.35417 | 34422 ft | 419 kts | 276° |
| 2026-05-04 20:20 | 55.01768 | -30.45531 | 34432 ft | 418 kts | 276° |
| 2026-05-04 20:21 | 55.02138 | -30.55649 | 34431 ft | 418 kts | 276° |
| 2026-05-04 20:21 | 55.02658 | -30.70771 | 34431 ft | 419 kts | 275° |
| 2026-05-04 20:22 | 55.03005 | -30.80899 | 34437 ft | 419 kts | 276° |
| 2026-05-04 20:22 | 55.03352 | -30.91026 | 34440 ft | 419 kts | 276° |
| 2026-05-04 20:23 | 55.03694 | -31.01203 | 34417 ft | 421 kts | 276° |
| 2026-05-04 20:23 | 55.04024 | -31.11376 | 34431 ft | 420 kts | 276° |
| 2026-05-04 20:24 | 55.04333 | -31.21554 | 34436 ft | 420 kts | 276° |
| 2026-05-04 20:24 | 55.04650 | -31.31731 | 34436 ft | 420 kts | 276° |
| 2026-05-04 20:25 | 55.04955 | -31.41915 | 34435 ft | 420 kts | 276° |
| 2026-05-04 20:25 | 55.05257 | -31.52097 | 34438 ft | 421 kts | 276° |
| 2026-05-04 20:26 | 55.05537 | -31.62291 | 34433 ft | 421 kts | 276° |
| 2026-05-04 20:26 | 55.05815 | -31.72473 | 34423 ft | 420 kts | 276° |
| 2026-05-04 20:27 | 55.06088 | -31.82654 | 34430 ft | 420 kts | 276° |
| 2026-05-04 20:27 | 55.06351 | -31.92845 | 34423 ft | 421 kts | 276° |
| 2026-05-04 20:28 | 55.06606 | -32.03049 | 34434 ft | 421 kts | 276° |
| 2026-05-04 20:28 | 55.06849 | -32.13258 | 34434 ft | 421 kts | 276° |
| 2026-05-04 20:29 | 55.07080 | -32.23474 | 34437 ft | 421 kts | 276° |
| 2026-05-04 20:29 | 55.07305 | -32.33690 | 34416 ft | 421 kts | 275° |
| 2026-05-04 20:30 | 55.07520 | -32.43871 | 34431 ft | 420 kts | 275° |
| 2026-05-04 20:30 | 55.07734 | -32.54047 | 34431 ft | 420 kts | 275° |
| 2026-05-04 20:31 | 55.07936 | -32.64227 | 34413 ft | 420 kts | 275° |
| 2026-05-04 20:31 | 55.08131 | -32.74413 | 34428 ft | 420 kts | 275° |
| 2026-05-04 20:32 | 55.08323 | -32.84599 | 34424 ft | 419 kts | 275° |
| 2026-05-04 20:32 | 55.08466 | -32.93043 | 34425 ft | 419 kts | 275° |
| 2026-05-04 20:33 | 55.08630 | -33.03202 | 34413 ft | 418 kts | 274° |
| 2026-05-04 20:33 | 55.08814 | -33.14990 | 34420 ft | 418 kts | 274° |
| 2026-05-04 20:34 | 55.08944 | -33.23484 | 34419 ft | 418 kts | 274° |
| 2026-05-04 20:34 | 55.09089 | -33.33627 | 34419 ft | 418 kts | 274° |
| 2026-05-04 20:35 | 55.09224 | -33.43707 | 34420 ft | 418 kts | 274° |
| 2026-05-04 20:35 | 55.09346 | -33.53854 | 34419 ft | 418 kts | 274° |
| 2026-05-04 20:36 | 55.09467 | -33.64004 | 34416 ft | 418 kts | 274° |
| 2026-05-04 20:36 | 55.09574 | -33.74136 | 34407 ft | 417 kts | 274° |
| 2026-05-04 20:37 | 55.09677 | -33.84245 | 34413 ft | 416 kts | 274° |
| 2026-05-04 20:37 | 55.09764 | -33.94343 | 34410 ft | 416 kts | 274° |
| 2026-05-04 20:38 | 55.09852 | -34.04435 | 34410 ft | 416 kts | 274° |
| 2026-05-04 20:38 | 55.09929 | -34.14532 | 34410 ft | 416 kts | 274° |
| 2026-05-04 20:39 | 55.09994 | -34.24630 | 34408 ft | 416 kts | 274° |
| 2026-05-04 20:39 | 55.10055 | -34.34734 | 34380 ft | 416 kts | 274° |
| 2026-05-04 20:40 | 55.10104 | -34.44795 | 34400 ft | 414 kts | 274° |
| 2026-05-04 20:40 | 55.10147 | -34.54847 | 34401 ft | 414 kts | 274° |
| 2026-05-04 20:41 | 55.10182 | -34.64902 | 34400 ft | 414 kts | 274° |
| 2026-05-04 20:41 | 55.10212 | -34.74953 | 34395 ft | 414 kts | 274° |
| 2026-05-04 20:42 | 55.10230 | -34.85023 | 34395 ft | 415 kts | 274° |
| 2026-05-04 20:42 | 55.10238 | -34.95096 | 34396 ft | 415 kts | 274° |
| 2026-05-04 20:43 | 55.10227 | -35.05157 | 34375 ft | 413 kts | 275° |
| 2026-05-04 20:43 | 55.10215 | -35.15164 | 34385 ft | 412 kts | 275° |
| 2026-05-04 20:44 | 55.10199 | -35.25173 | 34383 ft | 412 kts | 275° |
| 2026-05-04 20:44 | 55.10174 | -35.35184 | 34388 ft | 412 kts | 275° |
| 2026-05-04 20:45 | 55.10139 | -35.45193 | 34398 ft | 412 kts | 275° |
| 2026-05-04 20:45 | 55.10096 | -35.55138 | 34377 ft | 412 kts | 275° |
| 2026-05-04 20:46 | 55.10044 | -35.65153 | 34384 ft | 413 kts | 274° |
| 2026-05-04 20:46 | 55.09977 | -35.75168 | 34377 ft | 413 kts | 275° |
| 2026-05-04 20:47 | 55.09904 | -35.85201 | 34378 ft | 413 kts | 275° |
| 2026-05-04 20:47 | 55.09851 | -35.95227 | 34382 ft | 413 kts | 275° |
| 2026-05-04 20:48 | 55.09780 | -36.05252 | 34388 ft | 413 kts | 275° |
| 2026-05-04 20:48 | 55.09687 | -36.15283 | 34375 ft | 413 kts | 275° |
| 2026-05-04 20:49 | 55.09590 | -36.25317 | 34361 ft | 413 kts | 275° |
| 2026-05-04 20:49 | 55.09485 | -36.35346 | 34322 ft | 412 kts | 275° |
| 2026-05-04 20:50 | 55.09371 | -36.45268 | 34352 ft | 408 kts | 275° |
| 2026-05-04 20:50 | 55.09252 | -36.55174 | 34360 ft | 408 kts | 275° |
| 2026-05-04 20:51 | 55.09117 | -36.65079 | 34343 ft | 408 kts | 275° |
| 2026-05-04 20:51 | 55.08971 | -36.74977 | 34353 ft | 408 kts | 275° |
| 2026-05-04 20:52 | 55.08820 | -36.84873 | 34353 ft | 408 kts | 275° |
| 2026-05-04 20:52 | 55.08668 | -36.94769 | 34350 ft | 408 kts | 275° |
| 2026-05-04 20:53 | 55.08513 | -37.04639 | 34321 ft | 403 kts | 275° |
| 2026-05-04 20:53 | 55.08344 | -37.14380 | 34334 ft | 401 kts | 275° |
| 2026-05-04 20:54 | 55.08170 | -37.24114 | 34340 ft | 401 kts | 275° |
| 2026-05-04 20:54 | 55.07988 | -37.33788 | 34340 ft | 402 kts | 274° |
| 2026-05-04 20:55 | 55.07794 | -37.43531 | 34331 ft | 402 kts | 274° |
| 2026-05-04 20:55 | 55.07603 | -37.53270 | 34331 ft | 402 kts | 274° |
| 2026-05-04 20:56 | 55.07383 | -37.63009 | 34331 ft | 402 kts | 274° |
| 2026-05-04 20:56 | 55.07166 | -37.72727 | 34308 ft | 397 kts | 273° |
| 2026-05-04 20:57 | 55.06952 | -37.82367 | 34319 ft | 398 kts | 273° |
| 2026-05-04 20:57 | 55.06727 | -37.92011 | 34321 ft | 398 kts | 273° |
| 2026-05-04 20:58 | 55.06492 | -38.01652 | 34316 ft | 398 kts | 273° |
| 2026-05-04 20:58 | 55.06251 | -38.11299 | 34321 ft | 398 kts | 272° |
| 2026-05-04 20:59 | 55.05998 | -38.20946 | 34303 ft | 398 kts | 272° |
| 2026-05-04 20:59 | 55.05737 | -38.30590 | 34305 ft | 398 kts | 272° |
| 2026-05-04 21:00 | 55.05473 | -38.40208 | 34293 ft | 396 kts | 271° |
| 2026-05-04 21:00 | 55.05206 | -38.49722 | 34301 ft | 396 kts | 271° |
| 2026-05-04 21:01 | 55.04930 | -38.59312 | 34290 ft | 397 kts | 271° |
| 2026-05-04 21:01 | 55.04641 | -38.68952 | 34293 ft | 398 kts | 271° |
| 2026-05-04 21:02 | 55.04346 | -38.78595 | 34285 ft | 398 kts | 271° |
| 2026-05-04 21:02 | 55.04045 | -38.88242 | 34287 ft | 398 kts | 271° |
| 2026-05-04 21:03 | 55.03734 | -38.97891 | 34279 ft | 399 kts | 270° |
| 2026-05-04 21:03 | 55.03411 | -39.07546 | 34263 ft | 400 kts | 269° |
| 2026-05-04 21:04 | 55.03082 | -39.17223 | 34271 ft | 400 kts | 269° |
| 2026-05-04 21:04 | 55.02745 | -39.26905 | 34263 ft | 400 kts | 269° |
| 2026-05-04 21:05 | 55.02397 | -39.36586 | 34256 ft | 400 kts | 269° |
| 2026-05-04 21:05 | 55.02042 | -39.46268 | 34251 ft | 400 kts | 269° |
| 2026-05-04 21:06 | 55.01687 | -39.55952 | 34239 ft | 400 kts | 269° |
| 2026-05-04 21:06 | 55.01320 | -39.65629 | 34248 ft | 400 kts | 269° |
| 2026-05-04 21:07 | 55.00941 | -39.75348 | 34229 ft | 403 kts | 268° |
| 2026-05-04 21:07 | 55.00558 | -39.85105 | 34230 ft | 404 kts | 268° |
| 2026-05-04 21:08 | 55.00174 | -39.94864 | 34219 ft | 404 kts | 268° |
| 2026-05-04 21:08 | 54.99717 | -40.04553 | 34221 ft | 404 kts | 266° |
| 2026-05-04 21:09 | 54.99145 | -40.14298 | 34212 ft | 405 kts | 266° |
| 2026-05-04 21:09 | 54.98577 | -40.24041 | 34201 ft | 405 kts | 266° |
| 2026-05-04 21:10 | 54.98013 | -40.33792 | 34187 ft | 406 kts | 265° |
| 2026-05-04 21:10 | 54.97395 | -40.43638 | 34209 ft | 411 kts | 265° |
| 2026-05-04 21:11 | 54.96773 | -40.53533 | 34203 ft | 411 kts | 265° |
| 2026-05-04 21:11 | 54.96158 | -40.63429 | 34185 ft | 411 kts | 265° |
| 2026-05-04 21:12 | 54.95542 | -40.73326 | 34183 ft | 412 kts | 265° |
| 2026-05-04 21:12 | 54.94913 | -40.83220 | 34175 ft | 412 kts | 265° |
| 2026-05-04 21:13 | 54.94277 | -40.93111 | 34166 ft | 412 kts | 265° |
| 2026-05-04 21:13 | 54.93628 | -41.03011 | 34167 ft | 412 kts | 264° |
| 2026-05-04 21:14 | 54.92972 | -41.12931 | 34152 ft | 413 kts | 264° |
| 2026-05-04 21:14 | 54.92312 | -41.22846 | 34160 ft | 413 kts | 264° |
| 2026-05-04 21:15 | 54.91635 | -41.32757 | 34153 ft | 413 kts | 264° |
| 2026-05-04 21:15 | 54.90958 | -41.42665 | 34136 ft | 413 kts | 264° |
| 2026-05-04 21:16 | 54.90281 | -41.52510 | 34142 ft | 413 kts | 263° |
| 2026-05-04 21:16 | 54.89586 | -41.62403 | 34128 ft | 413 kts | 263° |
| 2026-05-04 21:17 | 54.88901 | -41.72300 | 34121 ft | 413 kts | 263° |
| 2026-05-04 21:17 | 54.88190 | -41.82174 | 34121 ft | 412 kts | 263° |
| 2026-05-04 21:18 | 54.87470 | -41.92060 | 34131 ft | 413 kts | 263° |
| 2026-05-04 21:18 | 54.86762 | -42.01931 | 34127 ft | 412 kts | 262° |
| 2026-05-04 21:19 | 54.86029 | -42.11820 | 34103 ft | 413 kts | 262° |
| 2026-05-04 21:19 | 54.85282 | -42.21678 | 34102 ft | 412 kts | 262° |
| 2026-05-04 21:20 | 54.84519 | -42.31552 | 34105 ft | 413 kts | 262° |
| 2026-05-04 21:20 | 54.83759 | -42.41395 | 34083 ft | 412 kts | 262° |
| 2026-05-04 21:21 | 54.82978 | -42.51262 | 34087 ft | 412 kts | 262° |
| 2026-05-04 21:21 | 54.82204 | -42.61103 | 34081 ft | 413 kts | 262° |
| 2026-05-04 21:22 | 54.81426 | -42.70895 | 34071 ft | 411 kts | 261° |
| 2026-05-04 21:22 | 54.80633 | -42.80727 | 34070 ft | 413 kts | 261° |
| 2026-05-04 21:23 | 54.79839 | -42.90568 | 34052 ft | 411 kts | 260° |
| 2026-05-04 21:23 | 54.79033 | -43.00457 | 34049 ft | 416 kts | 259° |
| 2026-05-04 21:24 | 54.78343 | -43.08758 | 34051 ft | 414 kts | 259° |
| 2026-05-04 21:24 | 54.77526 | -43.18596 | 34036 ft | 417 kts | 259° |
| 2026-05-04 21:25 | 54.76693 | -43.28498 | 34025 ft | 415 kts | 259° |
| 2026-05-04 21:25 | 54.75849 | -43.38403 | 34026 ft | 416 kts | 259° |
| 2026-05-04 21:26 | 54.75003 | -43.48294 | 34014 ft | 416 kts | 259° |
| 2026-05-04 21:26 | 54.74157 | -43.58250 | 34014 ft | 421 kts | 258° |
| 2026-05-04 21:27 | 54.73287 | -43.68284 | 33989 ft | 422 kts | 258° |
| 2026-05-04 21:27 | 54.72403 | -43.78339 | 33987 ft | 422 kts | 257° |
| 2026-05-04 21:28 | 54.71497 | -43.88375 | 33986 ft | 423 kts | 257° |
| 2026-05-04 21:28 | 54.70582 | -43.98418 | 33974 ft | 423 kts | 257° |
| 2026-05-04 21:29 | 54.69676 | -44.08462 | 33957 ft | 423 kts | 257° |
| 2026-05-04 21:29 | 54.68754 | -44.18500 | 33955 ft | 424 kts | 256° |
| 2026-05-04 21:30 | 54.67823 | -44.28531 | 33953 ft | 426 kts | 256° |
| 2026-05-04 21:30 | 54.66873 | -44.38649 | 33962 ft | 427 kts | 256° |
| 2026-05-04 21:31 | 54.65416 | -44.53835 | 33918 ft | 428 kts | 256° |
| 2026-05-04 21:32 | 54.64453 | -44.63974 | 33918 ft | 428 kts | 256° |
| 2026-05-04 21:32 | 54.63472 | -44.74100 | 33910 ft | 428 kts | 256° |
| 2026-05-04 21:33 | 54.62471 | -44.84233 | 33909 ft | 430 kts | 255° |
| 2026-05-04 21:33 | 54.61461 | -44.94422 | 33884 ft | 431 kts | 255° |
| 2026-05-04 21:34 | 54.60462 | -45.04624 | 33882 ft | 431 kts | 255° |
| 2026-05-04 21:34 | 54.59431 | -45.14809 | 33874 ft | 431 kts | 255° |
| 2026-05-04 21:35 | 54.58395 | -45.24997 | 33856 ft | 431 kts | 255° |
| 2026-05-04 21:35 | 54.57356 | -45.35177 | 33875 ft | 431 kts | 255° |
| 2026-05-04 21:36 | 54.56305 | -45.45384 | 33861 ft | 435 kts | 253° |
| 2026-05-04 21:36 | 54.55232 | -45.55667 | 33834 ft | 437 kts | 253° |
| 2026-05-04 21:37 | 54.54157 | -45.65972 | 33818 ft | 437 kts | 253° |
| 2026-05-04 21:37 | 54.53068 | -45.76264 | 33815 ft | 437 kts | 253° |
| 2026-05-04 21:38 | 54.51962 | -45.86550 | 33812 ft | 437 kts | 253° |
| 2026-05-04 21:38 | 54.50864 | -45.96771 | 33789 ft | 437 kts | 253° |
| 2026-05-04 21:39 | 54.49735 | -46.07055 | 33818 ft | 440 kts | 252° |
| 2026-05-04 21:39 | 54.48573 | -46.17438 | 33787 ft | 443 kts | 252° |
| 2026-05-04 21:40 | 54.47419 | -46.27850 | 33783 ft | 444 kts | 252° |
| 2026-05-04 21:40 | 54.46259 | -46.38281 | 33771 ft | 445 kts | 252° |
| 2026-05-04 21:41 | 54.45087 | -46.48746 | 33758 ft | 446 kts | 252° |
| 2026-05-04 21:41 | 54.43914 | -46.59208 | 33758 ft | 446 kts | 252° |
| 2026-05-04 21:42 | 54.42722 | -46.69668 | 33766 ft | 449 kts | 252° |
| 2026-05-04 21:42 | 54.41516 | -46.80284 | 33743 ft | 455 kts | 252° |
| 2026-05-04 21:43 | 54.40301 | -46.90930 | 33723 ft | 454 kts | 251° |
| 2026-05-04 21:43 | 54.39049 | -47.01557 | 33723 ft | 454 kts | 252° |
| 2026-05-04 21:44 | 54.37803 | -47.12184 | 33716 ft | 454 kts | 252° |
| 2026-05-04 21:44 | 54.36531 | -47.22805 | 33705 ft | 454 kts | 251° |
| 2026-05-04 21:45 | 54.35248 | -47.33460 | 33729 ft | 461 kts | 251° |
| 2026-05-04 21:45 | 54.33961 | -47.44290 | 33690 ft | 464 kts | 251° |
| 2026-05-04 21:46 | 54.32633 | -47.55037 | 33687 ft | 464 kts | 250° |
| 2026-05-04 21:46 | 54.31291 | -47.65850 | 33675 ft | 464 kts | 250° |
| 2026-05-04 21:47 | 54.29953 | -47.76664 | 33676 ft | 464 kts | 250° |
| 2026-05-04 21:47 | 54.28613 | -47.87478 | 33670 ft | 464 kts | 250° |
| 2026-05-04 21:48 | 54.27246 | -47.98302 | 33665 ft | 468 kts | 249° |
| 2026-05-04 21:48 | 54.25855 | -48.09183 | 33653 ft | 468 kts | 249° |
| 2026-05-04 21:49 | 54.24486 | -48.20081 | 33685 ft | 469 kts | 249° |
| 2026-05-04 21:49 | 54.23091 | -48.31006 | 33661 ft | 471 kts | 249° |
| 2026-05-04 21:50 | 54.21662 | -48.41931 | 33640 ft | 471 kts | 249° |
| 2026-05-04 21:50 | 54.20225 | -48.52851 | 33640 ft | 472 kts | 249° |
| 2026-05-04 21:51 | 54.18791 | -48.63781 | 33621 ft | 472 kts | 249° |
| 2026-05-04 21:51 | 54.17363 | -48.74712 | 33620 ft | 472 kts | 249° |
| 2026-05-04 21:52 | 54.15906 | -48.85611 | 33625 ft | 471 kts | 248° |
| 2026-05-04 21:52 | 54.14446 | -48.96516 | 33602 ft | 471 kts | 248° |
| 2026-05-04 21:53 | 54.12974 | -49.07407 | 33601 ft | 471 kts | 248° |
| 2026-05-04 21:53 | 54.11490 | -49.18313 | 33628 ft | 475 kts | 247° |
| 2026-05-04 21:54 | 54.09969 | -49.29291 | 33603 ft | 477 kts | 247° |
| 2026-05-04 21:54 | 54.08460 | -49.40217 | 33579 ft | 477 kts | 247° |
| 2026-05-04 21:55 | 54.06929 | -49.51205 | 33572 ft | 477 kts | 246° |
| 2026-05-04 21:55 | 54.05381 | -49.62177 | 33573 ft | 477 kts | 247° |
| 2026-05-04 21:56 | 54.03842 | -49.73160 | 33636 ft | 476 kts | 246° |
| 2026-05-04 21:56 | 54.02264 | -49.84127 | 33574 ft | 479 kts | 246° |
| 2026-05-04 21:57 | 54.00684 | -49.95120 | 33565 ft | 479 kts | 246° |
| 2026-05-04 21:57 | 53.98644 | -50.05699 | 33591 ft | 466 kts | 236° |
| 2026-05-04 21:58 | 53.96159 | -50.15897 | 33549 ft | 468 kts | 236° |
| 2026-05-04 21:58 | 53.93667 | -50.26104 | 33547 ft | 468 kts | 236° |
| 2026-05-04 21:59 | 53.91196 | -50.36282 | 33555 ft | 464 kts | 236° |
| 2026-05-04 21:59 | 53.88716 | -50.46384 | 33537 ft | 464 kts | 236° |
| 2026-05-04 22:00 | 53.86236 | -50.56489 | 33523 ft | 464 kts | 236° |
| 2026-05-04 22:00 | 53.83732 | -50.66560 | 33522 ft | 464 kts | 236° |
| 2026-05-04 22:01 | 53.81253 | -50.76567 | 33506 ft | 464 kts | 235° |
| 2026-05-04 22:01 | 53.78749 | -50.86622 | 33538 ft | 463 kts | 236° |
| 2026-05-04 22:02 | 53.76237 | -50.96641 | 33503 ft | 463 kts | 235° |
| 2026-05-04 22:02 | 53.73719 | -51.06649 | 33493 ft | 463 kts | 235° |
| 2026-05-04 22:03 | 53.71190 | -51.16646 | 33475 ft | 463 kts | 235° |
| 2026-05-04 22:03 | 53.68649 | -51.26637 | 33800 ft | 463 kts | 236° |
| 2026-05-04 22:03 | 53.67377 | -51.31608 | 34166 ft | 459 kts | 237° |
| 2026-05-04 22:04 | 53.66110 | -51.36526 | 34486 ft | 456 kts | 237° |
| 2026-05-04 22:04 | 53.64859 | -51.41428 | 34734 ft | 455 kts | 237° |
| 2026-05-04 22:04 | 53.63608 | -51.46315 | 34942 ft | 454 kts | 237° |
| 2026-05-04 22:04 | 53.62352 | -51.51183 | 35119 ft | 453 kts | 237° |
| 2026-05-04 22:05 | 53.61098 | -51.56050 | 35301 ft | 453 kts | 238° |
| 2026-05-04 22:05 | 53.59845 | -51.60920 | 35458 ft | 453 kts | 238° |
| 2026-05-04 22:05 | 53.58587 | -51.65773 | 35484 ft | 452 kts | 238° |
| 2026-05-04 22:06 | 53.56073 | -51.75472 | 35445 ft | 452 kts | 238° |
| 2026-05-04 22:06 | 53.53555 | -51.85157 | 35461 ft | 452 kts | 238° |
| 2026-05-04 22:07 | 53.51012 | -51.94803 | 35426 ft | 451 kts | 238° |
| 2026-05-04 22:07 | 53.48483 | -52.04453 | 35423 ft | 451 kts | 238° |
| 2026-05-04 22:08 | 53.45942 | -52.14084 | 35412 ft | 451 kts | 238° |
| 2026-05-04 22:08 | 53.43384 | -52.23696 | 35412 ft | 451 kts | 238° |
| 2026-05-04 22:09 | 53.40822 | -52.33311 | 35421 ft | 452 kts | 239° |
| 2026-05-04 22:09 | 53.38248 | -52.42934 | 35398 ft | 453 kts | 238° |
| 2026-05-04 22:10 | 53.35651 | -52.52566 | 35385 ft | 454 kts | 239° |
| 2026-05-04 22:10 | 53.33053 | -52.62211 | 35383 ft | 454 kts | 238° |
| 2026-05-04 22:11 | 53.30448 | -52.71837 | 35372 ft | 454 kts | 238° |
| 2026-05-04 22:11 | 53.27848 | -52.81390 | 35384 ft | 455 kts | 239° |
| 2026-05-04 22:12 | 53.25206 | -52.91061 | 35365 ft | 454 kts | 239° |
| 2026-05-04 22:12 | 53.22590 | -53.00588 | 35355 ft | 454 kts | 239° |
| 2026-05-04 22:13 | 53.19929 | -53.10141 | 35342 ft | 454 kts | 238° |
| 2026-05-04 22:13 | 53.17270 | -53.19691 | 35337 ft | 454 kts | 239° |
| 2026-05-04 22:14 | 53.14616 | -53.29240 | 35341 ft | 454 kts | 239° |
| 2026-05-04 22:14 | 53.11962 | -53.38777 | 35325 ft | 454 kts | 239° |
| 2026-05-04 22:15 | 53.09743 | -53.46686 | 35323 ft | 454 kts | 239° |
| 2026-05-04 22:15 | 53.07066 | -53.56190 | 35337 ft | 455 kts | 239° |
| 2026-05-04 22:16 | 53.04370 | -53.65711 | 35316 ft | 455 kts | 239° |
| 2026-05-04 22:16 | 53.01676 | -53.75226 | 35310 ft | 455 kts | 239° |
| 2026-05-04 22:17 | 52.99001 | -53.84766 | 35303 ft | 455 kts | 239° |
| 2026-05-04 22:17 | 52.96313 | -53.94274 | 35298 ft | 455 kts | 239° |
| 2026-05-04 22:18 | 52.93600 | -54.03756 | 35287 ft | 455 kts | 239° |
| 2026-05-04 22:18 | 52.90863 | -54.13210 | 35285 ft | 455 kts | 238° |
| 2026-05-04 22:19 | 52.88129 | -54.22659 | 35289 ft | 455 kts | 239° |
| 2026-05-04 22:19 | 52.85399 | -54.32098 | 35275 ft | 454 kts | 239° |
| 2026-05-04 22:20 | 52.82656 | -54.41514 | 35267 ft | 454 kts | 239° |
| 2026-05-04 22:20 | 52.79905 | -54.50912 | 35265 ft | 454 kts | 239° |
| 2026-05-04 22:21 | 52.77148 | -54.60298 | 35252 ft | 454 kts | 238° |
| 2026-05-04 22:21 | 52.74379 | -54.69684 | 35272 ft | 455 kts | 239° |
| 2026-05-04 22:22 | 52.71623 | -54.78996 | 35245 ft | 455 kts | 239° |
| 2026-05-04 22:22 | 52.68836 | -54.88361 | 35242 ft | 455 kts | 239° |
| 2026-05-04 22:23 | 52.66053 | -54.97709 | 35233 ft | 455 kts | 239° |
| 2026-05-04 22:23 | 52.63246 | -55.07037 | 35226 ft | 454 kts | 238° |
| 2026-05-04 22:24 | 52.60417 | -55.16329 | 35237 ft | 454 kts | 239° |
| 2026-05-04 22:24 | 52.57605 | -55.25640 | 35222 ft | 454 kts | 239° |
| 2026-05-04 22:25 | 52.54784 | -55.34930 | 35212 ft | 454 kts | 239° |
| 2026-05-04 22:25 | 52.51964 | -55.44210 | 35208 ft | 454 kts | 238° |
| 2026-05-04 22:26 | 52.49146 | -55.53489 | 35191 ft | 454 kts | 238° |
| 2026-05-04 22:26 | 52.46321 | -55.62744 | 35197 ft | 453 kts | 239° |
| 2026-05-04 22:27 | 52.43497 | -55.71970 | 35182 ft | 452 kts | 239° |
| 2026-05-04 22:27 | 52.40657 | -55.81161 | 35175 ft | 452 kts | 238° |
| 2026-05-04 22:28 | 52.37602 | -55.90174 | 35176 ft | 456 kts | 236° |
| 2026-05-04 22:28 | 52.34438 | -55.99204 | 35172 ft | 458 kts | 236° |
| 2026-05-04 22:29 | 52.31268 | -56.08232 | 35182 ft | 457 kts | 236° |
| 2026-05-04 22:29 | 52.28128 | -56.17162 | 35177 ft | 456 kts | 236° |
| 2026-05-04 22:30 | 52.24929 | -56.26101 | 35170 ft | 456 kts | 236° |
| 2026-05-04 22:30 | 52.21748 | -56.35057 | 35171 ft | 456 kts | 236° |
| 2026-05-04 22:31 | 52.18563 | -56.43997 | 35181 ft | 456 kts | 236° |
| 2026-05-04 22:31 | 52.15368 | -56.52896 | 35161 ft | 454 kts | 237° |
| 2026-05-04 22:32 | 52.12182 | -56.61778 | 35160 ft | 454 kts | 236° |
| 2026-05-04 22:32 | 52.08996 | -56.70654 | 35156 ft | 454 kts | 237° |
| 2026-05-04 22:33 | 52.05821 | -56.79532 | 35156 ft | 454 kts | 236° |
| 2026-05-04 22:33 | 52.02621 | -56.88367 | 35170 ft | 454 kts | 237° |
| 2026-05-04 22:34 | 51.99406 | -56.97183 | 35151 ft | 454 kts | 237° |
| 2026-05-04 22:34 | 51.96180 | -57.05978 | 35148 ft | 454 kts | 237° |
| 2026-05-04 22:35 | 51.92967 | -57.14788 | 35156 ft | 454 kts | 236° |
| 2026-05-04 22:35 | 51.89744 | -57.23571 | 35152 ft | 454 kts | 237° |
| 2026-05-04 22:36 | 51.86505 | -57.32340 | 35163 ft | 454 kts | 237° |
| 2026-05-04 22:36 | 51.83257 | -57.41109 | 35163 ft | 454 kts | 237° |
| 2026-05-04 22:37 | 51.80006 | -57.49867 | 35162 ft | 454 kts | 236° |
| 2026-05-04 22:37 | 51.76738 | -57.58609 | 35164 ft | 454 kts | 237° |
| 2026-05-04 22:38 | 51.73476 | -57.67342 | 35165 ft | 454 kts | 236° |
| 2026-05-04 22:38 | 51.70204 | -57.76055 | 35171 ft | 453 kts | 237° |
| 2026-05-04 22:39 | 51.66936 | -57.84728 | 35168 ft | 453 kts | 237° |
| 2026-05-04 22:39 | 51.63668 | -57.93394 | 35168 ft | 453 kts | 237° |
| 2026-05-04 22:40 | 51.60390 | -58.02045 | 35176 ft | 453 kts | 237° |
| 2026-05-04 22:40 | 51.57093 | -58.10682 | 35172 ft | 453 kts | 237° |
| 2026-05-04 22:41 | 51.53820 | -58.19264 | 35178 ft | 453 kts | 237° |
| 2026-05-04 22:41 | 51.50520 | -58.27896 | 35174 ft | 453 kts | 237° |
| 2026-05-04 22:42 | 51.47216 | -58.36498 | 35179 ft | 453 kts | 236° |
| 2026-05-04 22:42 | 51.43902 | -58.45087 | 35180 ft | 453 kts | 236° |
| 2026-05-04 22:43 | 51.40579 | -58.53644 | 35184 ft | 452 kts | 236° |
| 2026-05-04 22:43 | 51.37266 | -58.62178 | 35178 ft | 451 kts | 236° |
| 2026-05-04 22:44 | 51.33953 | -58.70697 | 35182 ft | 451 kts | 236° |
| 2026-05-04 22:44 | 51.30622 | -58.79201 | 35181 ft | 451 kts | 236° |
| 2026-05-04 22:45 | 51.27299 | -58.87696 | 35177 ft | 451 kts | 236° |
| 2026-05-04 22:45 | 51.22295 | -59.00378 | 35169 ft | 450 kts | 236° |
| 2026-05-04 22:46 | 51.18966 | -59.08828 | 35166 ft | 450 kts | 236° |
| 2026-05-04 22:46 | 51.15619 | -59.17262 | 35165 ft | 451 kts | 236° |
| 2026-05-04 22:47 | 51.12268 | -59.25697 | 35168 ft | 451 kts | 236° |
| 2026-05-04 22:47 | 51.08908 | -59.34100 | 35168 ft | 449 kts | 236° |
| 2026-05-04 22:48 | 51.05553 | -59.42468 | 35162 ft | 449 kts | 236° |
| 2026-05-04 22:48 | 51.02197 | -59.50822 | 35161 ft | 449 kts | 236° |
| 2026-05-04 22:49 | 50.98835 | -59.59162 | 35163 ft | 448 kts | 236° |
| 2026-05-04 22:49 | 50.95461 | -59.67483 | 35173 ft | 448 kts | 236° |
| 2026-05-04 22:50 | 50.92085 | -59.75775 | 35172 ft | 447 kts | 236° |
| 2026-05-04 22:50 | 50.88711 | -59.84031 | 35173 ft | 446 kts | 236° |
| 2026-05-04 22:51 | 50.85334 | -59.92287 | 35182 ft | 446 kts | 236° |
| 2026-05-04 22:51 | 50.81957 | -60.00525 | 35179 ft | 446 kts | 236° |
| 2026-05-04 22:52 | 50.78580 | -60.08759 | 35197 ft | 445 kts | 236° |
| 2026-05-04 22:52 | 50.75203 | -60.16930 | 35192 ft | 444 kts | 236° |
| 2026-05-04 22:53 | 50.71825 | -60.25090 | 35204 ft | 444 kts | 236° |
| 2026-05-04 22:53 | 50.68467 | -60.33174 | 35207 ft | 444 kts | 236° |
| 2026-05-04 22:54 | 50.65077 | -60.41309 | 35222 ft | 444 kts | 236° |
| 2026-05-04 22:54 | 50.61705 | -60.49431 | 35225 ft | 442 kts | 237° |
| 2026-05-04 22:55 | 50.58352 | -60.57530 | 35233 ft | 441 kts | 236° |
| 2026-05-04 22:55 | 50.54971 | -60.65585 | 35236 ft | 441 kts | 236° |
| 2026-05-04 22:56 | 50.51579 | -60.73633 | 35248 ft | 441 kts | 236° |
| 2026-05-04 22:56 | 50.48187 | -60.81673 | 35260 ft | 441 kts | 236° |
| 2026-05-04 22:57 | 50.44802 | -60.89679 | 35258 ft | 439 kts | 236° |
| 2026-05-04 22:57 | 50.41399 | -60.97649 | 35261 ft | 440 kts | 236° |
| 2026-05-04 22:58 | 50.38009 | -61.05634 | 35264 ft | 439 kts | 236° |
| 2026-05-04 22:58 | 50.34604 | -61.13584 | 35280 ft | 439 kts | 236° |
| 2026-05-04 22:59 | 50.31198 | -61.21538 | 35268 ft | 438 kts | 237° |
| 2026-05-04 22:59 | 50.27788 | -61.29431 | 35269 ft | 437 kts | 236° |
| 2026-05-04 23:00 | 50.24386 | -61.37309 | 35265 ft | 436 kts | 236° |
| 2026-05-04 23:00 | 50.20990 | -61.45177 | 35265 ft | 436 kts | 236° |
| 2026-05-04 23:01 | 50.17584 | -61.53028 | 35258 ft | 437 kts | 236° |
| 2026-05-04 23:01 | 50.14174 | -61.60866 | 35260 ft | 434 kts | 236° |
| 2026-05-04 23:02 | 50.11345 | -61.67332 | 35254 ft | 435 kts | 236° |
| 2026-05-04 23:02 | 50.07934 | -61.75105 | 35254 ft | 436 kts | 236° |
| 2026-05-04 23:03 | 50.04504 | -61.82860 | 35260 ft | 435 kts | 236° |
| 2026-05-04 23:03 | 50.01084 | -61.90609 | 35330 ft | 435 kts | 236° |
| 2026-05-04 23:04 | 49.97668 | -61.98351 | 35351 ft | 435 kts | 236° |
| 2026-05-04 23:04 | 49.94238 | -62.06078 | 35355 ft | 435 kts | 236° |
| 2026-05-04 23:05 | 49.90810 | -62.13792 | 35361 ft | 434 kts | 236° |
| 2026-05-04 23:05 | 49.87377 | -62.21493 | 35359 ft | 436 kts | 236° |
| 2026-05-04 23:06 | 49.83927 | -62.29199 | 35374 ft | 436 kts | 236° |
| 2026-05-04 23:06 | 49.80490 | -62.36867 | 35378 ft | 433 kts | 236° |
| 2026-05-04 23:07 | 49.77058 | -62.44513 | 35386 ft | 434 kts | 236° |
| 2026-05-04 23:07 | 49.73610 | -62.52158 | 35386 ft | 434 kts | 236° |
| 2026-05-04 23:08 | 49.70172 | -62.59795 | 35400 ft | 433 kts | 236° |
| 2026-05-04 23:08 | 49.66735 | -62.67436 | 35397 ft | 434 kts | 236° |
| 2026-05-04 23:09 | 49.63268 | -62.75064 | 35418 ft | 434 kts | 236° |
| 2026-05-04 23:09 | 49.59791 | -62.82680 | 35417 ft | 434 kts | 236° |
| 2026-05-04 23:10 | 49.56324 | -62.90290 | 35432 ft | 434 kts | 236° |
| 2026-05-04 23:10 | 49.52842 | -62.97880 | 35442 ft | 434 kts | 235° |
| 2026-05-04 23:11 | 49.49357 | -63.05438 | 35448 ft | 432 kts | 236° |
| 2026-05-04 23:11 | 49.45862 | -63.12959 | 35467 ft | 432 kts | 236° |
| 2026-05-04 23:12 | 49.42368 | -63.20506 | 35463 ft | 433 kts | 236° |
| 2026-05-04 23:12 | 49.38870 | -63.28051 | 35469 ft | 433 kts | 236° |
| 2026-05-04 23:13 | 49.35369 | -63.35563 | 35473 ft | 428 kts | 236° |
| 2026-05-04 23:13 | 49.31899 | -63.42988 | 35481 ft | 427 kts | 236° |
| 2026-05-04 23:14 | 49.28455 | -63.50361 | 35480 ft | 428 kts | 236° |
| 2026-05-04 23:14 | 49.24957 | -63.57821 | 35488 ft | 426 kts | 236° |
| 2026-05-04 23:15 | 49.21508 | -63.65158 | 35491 ft | 427 kts | 236° |
| 2026-05-04 23:15 | 49.18022 | -63.72539 | 35497 ft | 428 kts | 236° |
| 2026-05-04 23:16 | 49.14510 | -63.79971 | 35498 ft | 427 kts | 235° |
| 2026-05-04 23:16 | 49.11014 | -63.87343 | 35510 ft | 428 kts | 235° |
| 2026-05-04 23:17 | 49.07514 | -63.94707 | 35519 ft | 428 kts | 235° |
| 2026-05-04 23:17 | 49.04014 | -64.02074 | 35515 ft | 430 kts | 235° |
| 2026-05-04 23:18 | 49.00490 | -64.09477 | 35517 ft | 431 kts | 236° |
| 2026-05-04 23:18 | 48.96956 | -64.16869 | 35512 ft | 432 kts | 235° |
| 2026-05-04 23:19 | 48.93413 | -64.24253 | 35503 ft | 432 kts | 235° |
| 2026-05-04 23:19 | 48.89862 | -64.31610 | 35502 ft | 432 kts | 235° |
| 2026-05-04 23:20 | 48.86315 | -64.38897 | 35500 ft | 432 kts | 235° |
| 2026-05-04 23:20 | 48.82740 | -64.46231 | 35501 ft | 432 kts | 235° |
| 2026-05-04 23:21 | 48.79175 | -64.53559 | 35501 ft | 432 kts | 235° |
| 2026-05-04 23:21 | 48.75607 | -64.60882 | 35501 ft | 432 kts | 235° |
| 2026-05-04 23:22 | 48.72034 | -64.68209 | 35502 ft | 432 kts | 235° |
| 2026-05-04 23:22 | 48.68457 | -64.75526 | 35529 ft | 433 kts | 235° |
| 2026-05-04 23:23 | 48.64867 | -64.82833 | 35533 ft | 433 kts | 235° |
| 2026-05-04 23:23 | 48.61276 | -64.90124 | 35544 ft | 432 kts | 235° |
| 2026-05-04 23:24 | 48.57689 | -64.97408 | 35554 ft | 432 kts | 235° |
| 2026-05-04 23:24 | 48.54094 | -65.04693 | 35567 ft | 433 kts | 235° |
| 2026-05-04 23:25 | 48.50481 | -65.11963 | 35569 ft | 433 kts | 234° |
| 2026-05-04 23:25 | 48.46863 | -65.19227 | 35569 ft | 433 kts | 234° |
| 2026-05-04 23:26 | 48.43237 | -65.26470 | 35563 ft | 433 kts | 234° |
| 2026-05-04 23:26 | 48.39618 | -65.33718 | 35554 ft | 433 kts | 234° |
| 2026-05-04 23:27 | 48.35984 | -65.40945 | 35561 ft | 433 kts | 234° |
| 2026-05-04 23:27 | 48.32348 | -65.48173 | 35561 ft | 433 kts | 234° |
| 2026-05-04 23:28 | 48.28695 | -65.55369 | 35572 ft | 433 kts | 234° |
| 2026-05-04 23:28 | 48.25081 | -65.62532 | 35572 ft | 433 kts | 234° |
| 2026-05-04 23:29 | 48.21425 | -65.69726 | 35593 ft | 434 kts | 234° |
| 2026-05-04 23:29 | 48.17767 | -65.76918 | 35598 ft | 434 kts | 234° |
| 2026-05-04 23:30 | 48.14087 | -65.84093 | 35611 ft | 434 kts | 234° |
| 2026-05-04 23:30 | 48.10409 | -65.91267 | 35619 ft | 435 kts | 234° |
| 2026-05-04 23:31 | 48.06722 | -65.98439 | 35614 ft | 434 kts | 234° |
| 2026-05-04 23:31 | 48.03049 | -66.05587 | 35621 ft | 434 kts | 234° |
| 2026-05-04 23:32 | 47.99374 | -66.12729 | 35622 ft | 434 kts | 234° |
| 2026-05-04 23:32 | 47.95693 | -66.19860 | 35611 ft | 434 kts | 234° |
| 2026-05-04 23:33 | 47.92006 | -66.26977 | 35610 ft | 434 kts | 234° |
| 2026-05-04 23:33 | 47.88313 | -66.34082 | 35607 ft | 433 kts | 234° |
| 2026-05-04 23:34 | 47.84624 | -66.41171 | 35611 ft | 433 kts | 234° |
| 2026-05-04 23:34 | 47.80923 | -66.48243 | 35611 ft | 433 kts | 234° |
| 2026-05-04 23:35 | 47.77236 | -66.55321 | 35621 ft | 433 kts | 234° |
| 2026-05-04 23:35 | 47.73534 | -66.62378 | 35617 ft | 432 kts | 235° |
| 2026-05-04 23:36 | 47.69842 | -66.69413 | 35628 ft | 432 kts | 235° |
| 2026-05-04 23:36 | 47.66138 | -66.76438 | 35633 ft | 433 kts | 235° |
| 2026-05-04 23:37 | 47.62414 | -66.83452 | 35640 ft | 433 kts | 234° |
| 2026-05-04 23:37 | 47.58692 | -66.90465 | 35636 ft | 432 kts | 235° |
| 2026-05-04 23:38 | 47.54983 | -66.97447 | 35642 ft | 431 kts | 235° |
| 2026-05-04 23:38 | 47.51272 | -67.04405 | 35654 ft | 431 kts | 235° |
| 2026-05-04 23:39 | 47.47553 | -67.11350 | 35654 ft | 431 kts | 235° |
| 2026-05-04 23:39 | 47.43839 | -67.18293 | 35660 ft | 431 kts | 235° |
| 2026-05-04 23:40 | 47.40115 | -67.25216 | 35654 ft | 430 kts | 235° |
| 2026-05-04 23:40 | 47.36611 | -67.32329 | 35673 ft | 426 kts | 244° |
| 2026-05-04 23:41 | 47.33815 | -67.39942 | 35673 ft | 425 kts | 245° |
| 2026-05-04 23:41 | 47.31035 | -67.47634 | 35673 ft | 425 kts | 245° |
| 2026-05-04 23:42 | 47.28228 | -67.55291 | 35665 ft | 424 kts | 245° |
| 2026-05-04 23:42 | 47.25426 | -67.62916 | 35683 ft | 423 kts | 245° |
| 2026-05-04 23:43 | 47.22620 | -67.70521 | 35688 ft | 423 kts | 245° |
| 2026-05-04 23:43 | 47.19806 | -67.78110 | 35687 ft | 422 kts | 245° |
| 2026-05-04 23:44 | 47.16992 | -67.85691 | 35685 ft | 423 kts | 245° |
| 2026-05-04 23:44 | 47.14171 | -67.93267 | 35687 ft | 423 kts | 245° |
| 2026-05-04 23:45 | 47.11356 | -68.00825 | 35682 ft | 421 kts | 245° |
| 2026-05-04 23:45 | 47.08523 | -68.08350 | 35696 ft | 421 kts | 245° |
| 2026-05-04 23:46 | 47.05697 | -68.15879 | 35698 ft | 421 kts | 246° |
| 2026-05-04 23:46 | 47.02896 | -68.23399 | 35699 ft | 420 kts | 245° |
| 2026-05-04 23:47 | 47.00069 | -68.30901 | 35701 ft | 420 kts | 245° |
| 2026-05-04 23:47 | 46.97721 | -68.37130 | 35691 ft | 419 kts | 246° |
| 2026-05-04 23:48 | 46.94901 | -68.44567 | 35700 ft | 418 kts | 245° |
| 2026-05-04 23:48 | 46.92066 | -68.51985 | 35702 ft | 418 kts | 245° |
| 2026-05-04 23:49 | 46.89220 | -68.59395 | 35702 ft | 418 kts | 245° |
| 2026-05-04 23:49 | 46.86392 | -68.66806 | 35710 ft | 418 kts | 245° |
| 2026-05-04 23:50 | 46.83552 | -68.74211 | 35710 ft | 418 kts | 245° |
| 2026-05-04 23:50 | 46.80712 | -68.81611 | 35714 ft | 417 kts | 246° |
| 2026-05-04 23:51 | 46.77883 | -68.89012 | 35723 ft | 418 kts | 245° |
| 2026-05-04 23:51 | 46.75053 | -68.96345 | 35724 ft | 418 kts | 245° |
| 2026-05-04 23:52 | 46.72180 | -69.03710 | 35728 ft | 418 kts | 245° |
| 2026-05-04 23:52 | 46.69315 | -69.11063 | 35726 ft | 416 kts | 246° |
| 2026-05-04 23:53 | 46.66485 | -69.18376 | 35734 ft | 414 kts | 246° |
| 2026-05-04 23:53 | 46.63650 | -69.25658 | 35746 ft | 413 kts | 246° |
| 2026-05-04 23:54 | 46.60799 | -69.32928 | 35743 ft | 414 kts | 245° |
| 2026-05-04 23:54 | 46.57952 | -69.40184 | 35751 ft | 412 kts | 246° |
| 2026-05-04 23:55 | 46.55110 | -69.47406 | 35736 ft | 411 kts | 246° |
| 2026-05-04 23:56 | 46.50858 | -69.58159 | 35753 ft | 409 kts | 246° |
| 2026-05-04 23:56 | 46.48023 | -69.65312 | 35752 ft | 409 kts | 246° |
| 2026-05-04 23:57 | 46.45169 | -69.72448 | 35762 ft | 409 kts | 246° |
| 2026-05-04 23:57 | 46.42306 | -69.79580 | 35758 ft | 409 kts | 246° |
| 2026-05-04 23:58 | 46.39455 | -69.86707 | 35750 ft | 409 kts | 246° |
| 2026-05-04 23:58 | 46.36596 | -69.93829 | 35756 ft | 409 kts | 246° |
| 2026-05-04 23:59 | 46.33737 | -70.00957 | 35760 ft | 410 kts | 246° |
| 2026-05-04 23:59 | 46.30865 | -70.08096 | 35763 ft | 411 kts | 246° |
| 2026-05-05 00:00 | 46.27981 | -70.15239 | 35762 ft | 411 kts | 246° |
| 2026-05-05 00:00 | 46.25097 | -70.22374 | 35751 ft | 411 kts | 246° |
| 2026-05-05 00:01 | 46.22199 | -70.29505 | 35765 ft | 412 kts | 246° |
| 2026-05-05 00:01 | 46.19297 | -70.36630 | 35763 ft | 412 kts | 246° |
| 2026-05-05 00:02 | 46.16391 | -70.43758 | 35761 ft | 412 kts | 246° |
| 2026-05-05 00:02 | 46.13484 | -70.50874 | 35768 ft | 412 kts | 246° |
| 2026-05-05 00:03 | 46.10567 | -70.57975 | 35745 ft | 412 kts | 246° |
| 2026-05-05 00:03 | 46.07646 | -70.65061 | 35758 ft | 411 kts | 246° |
| 2026-05-05 00:04 | 46.04735 | -70.72151 | 35764 ft | 411 kts | 246° |
| 2026-05-05 00:04 | 46.01806 | -70.79229 | 35775 ft | 412 kts | 246° |
| 2026-05-05 00:05 | 45.99412 | -70.86584 | 35758 ft | 400 kts | 260° |
| 2026-05-05 00:05 | 45.98802 | -70.94334 | 35774 ft | 391 kts | 273° |
| 2026-05-05 00:06 | 45.98709 | -71.02143 | 35744 ft | 391 kts | 273° |
| 2026-05-05 00:06 | 45.98633 | -71.06033 | 35472 ft | 387 kts | 273° |
| 2026-05-05 00:06 | 45.98554 | -71.09924 | 34617 ft | 390 kts | 274° |
| 2026-05-05 00:06 | 45.98470 | -71.13793 | 34094 ft | 384 kts | 274° |
| 2026-05-05 00:07 | 45.98385 | -71.17585 | 33567 ft | 375 kts | 275° |
| 2026-05-05 00:07 | 45.98299 | -71.21298 | 32869 ft | 368 kts | 275° |
| 2026-05-05 00:07 | 45.98214 | -71.24948 | 32114 ft | 363 kts | 274° |
| 2026-05-05 00:07 | 45.98130 | -71.28545 | 31466 ft | 356 kts | 274° |
| 2026-05-05 00:08 | 45.98044 | -71.32067 | 30895 ft | 349 kts | 273° |
| 2026-05-05 00:08 | 45.97958 | -71.35504 | 30384 ft | 340 kts | 273° |
| 2026-05-05 00:08 | 45.97875 | -71.38855 | 29912 ft | 331 kts | 273° |
| 2026-05-05 00:08 | 45.97798 | -71.42123 | 29385 ft | 325 kts | 273° |
| 2026-05-05 00:09 | 45.97719 | -71.45349 | 28863 ft | 322 kts | 273° |
| 2026-05-05 00:09 | 45.97642 | -71.48552 | 28372 ft | 319 kts | 272° |
| 2026-05-05 00:09 | 45.97564 | -71.51725 | 27898 ft | 318 kts | 272° |
| 2026-05-05 00:09 | 45.97478 | -71.54901 | 27490 ft | 319 kts | 272° |
| 2026-05-05 00:10 | 45.97394 | -71.58090 | 27170 ft | 319 kts | 272° |
| 2026-05-05 00:10 | 45.97312 | -71.61273 | 26892 ft | 318 kts | 272° |
| 2026-05-05 00:10 | 45.97229 | -71.64450 | 26646 ft | 317 kts | 272° |
| 2026-05-05 00:10 | 45.97146 | -71.67614 | 26373 ft | 317 kts | 272° |
| 2026-05-05 00:11 | 45.97063 | -71.70761 | 26103 ft | 312 kts | 272° |
| 2026-05-05 00:11 | 45.96975 | -71.73841 | 25803 ft | 305 kts | 271° |
| 2026-05-05 00:11 | 45.96886 | -71.76863 | 25491 ft | 300 kts | 271° |
| 2026-05-05 00:11 | 45.96800 | -71.79828 | 25171 ft | 294 kts | 271° |
| 2026-05-05 00:12 | 45.96721 | -71.82739 | 24853 ft | 289 kts | 271° |
| 2026-05-05 00:12 | 45.96640 | -71.85602 | 24528 ft | 285 kts | 271° |
| 2026-05-05 00:12 | 45.96556 | -71.88450 | 24211 ft | 285 kts | 271° |
| 2026-05-05 00:12 | 45.96475 | -71.91288 | 23889 ft | 284 kts | 271° |
| 2026-05-05 00:13 | 45.96391 | -71.94117 | 23550 ft | 284 kts | 270° |
| 2026-05-05 00:13 | 45.96304 | -71.96946 | 23203 ft | 283 kts | 270° |
| 2026-05-05 00:13 | 45.96220 | -71.99759 | 22826 ft | 281 kts | 270° |
| 2026-05-05 00:13 | 45.96140 | -72.02561 | 22455 ft | 280 kts | 270° |
| 2026-05-05 00:14 | 45.96060 | -72.05343 | 22112 ft | 278 kts | 270° |
| 2026-05-05 00:14 | 45.95980 | -72.08075 | 21751 ft | 276 kts | 270° |
| 2026-05-05 00:14 | 45.95900 | -72.10821 | 21427 ft | 274 kts | 269° |
| 2026-05-05 00:14 | 45.95814 | -72.13555 | 21088 ft | 273 kts | 269° |
| 2026-05-05 00:15 | 45.95727 | -72.16279 | 20762 ft | 272 kts | 269° |
| 2026-05-05 00:15 | 45.95641 | -72.18989 | 20417 ft | 271 kts | 269° |
| 2026-05-05 00:15 | 45.95557 | -72.21688 | 20080 ft | 270 kts | 269° |
| 2026-05-05 00:15 | 45.95461 | -72.24488 | 19799 ft | 290 kts | 269° |
| 2026-05-05 00:16 | 45.95365 | -72.27399 | 19545 ft | 292 kts | 269° |
| 2026-05-05 00:16 | 45.95265 | -72.30306 | 19294 ft | 291 kts | 269° |
| 2026-05-05 00:16 | 45.95175 | -72.33207 | 19051 ft | 290 kts | 269° |
| 2026-05-05 00:16 | 45.95084 | -72.36100 | 18800 ft | 289 kts | 269° |
| 2026-05-05 00:17 | 45.94975 | -72.39063 | 18563 ft | 312 kts | 265° |
| 2026-05-05 00:17 | 45.94397 | -72.42159 | 18256 ft | 328 kts | 249° |
| 2026-05-05 00:17 | 45.93345 | -72.45077 | 17837 ft | 329 kts | 245° |
| 2026-05-05 00:17 | 45.92241 | -72.47936 | 17395 ft | 326 kts | 245° |
| 2026-05-05 00:18 | 45.91157 | -72.50786 | 17084 ft | 324 kts | 245° |
| 2026-05-05 00:18 | 45.90084 | -72.53623 | 16722 ft | 322 kts | 245° |
| 2026-05-05 00:18 | 45.89031 | -72.56446 | 16325 ft | 320 kts | 245° |
| 2026-05-05 00:18 | 45.87990 | -72.59258 | 15924 ft | 317 kts | 245° |
| 2026-05-05 00:19 | 45.86950 | -72.62038 | 15529 ft | 315 kts | 245° |
| 2026-05-05 00:19 | 45.85920 | -72.64804 | 15130 ft | 313 kts | 245° |
| 2026-05-05 00:19 | 45.84867 | -72.67639 | 14703 ft | 333 kts | 245° |
| 2026-05-05 00:19 | 45.83776 | -72.70557 | 14261 ft | 331 kts | 245° |
| 2026-05-05 00:20 | 45.82689 | -72.73452 | 13835 ft | 328 kts | 245° |
| 2026-05-05 00:20 | 45.81607 | -72.76318 | 13385 ft | 326 kts | 245° |
| 2026-05-05 00:20 | 45.80532 | -72.79164 | 12914 ft | 324 kts | 244° |
| 2026-05-05 00:20 | 45.79469 | -72.81995 | 12471 ft | 322 kts | 244° |
| 2026-05-05 00:21 | 45.78413 | -72.84810 | 12023 ft | 320 kts | 244° |
| 2026-05-05 00:21 | 45.77358 | -72.87605 | 11593 ft | 318 kts | 244° |
| 2026-05-05 00:21 | 45.76322 | -72.90352 | 11226 ft | 307 kts | 244° |
| 2026-05-05 00:21 | 45.75328 | -72.92971 | 11005 ft | 292 kts | 244° |
| 2026-05-05 00:22 | 45.74381 | -72.95448 | 10781 ft | 275 kts | 244° |
| 2026-05-05 00:22 | 45.73478 | -72.97826 | 10213 ft | 270 kts | 244° |
| 2026-05-05 00:22 | 45.72595 | -73.00165 | 9752 ft | 263 kts | 244° |
| 2026-05-05 00:22 | 45.71879 | -73.02487 | 9434 ft | 249 kts | 255° |
| 2026-05-05 00:23 | 45.71566 | -73.04896 | 9047 ft | 244 kts | 261° |
| 2026-05-05 00:23 | 45.71332 | -73.07299 | 8660 ft | 244 kts | 262° |
| 2026-05-05 00:23 | 45.71096 | -73.09693 | 8301 ft | 243 kts | 261° |
| 2026-05-05 00:23 | 45.70850 | -73.12044 | 7954 ft | 241 kts | 259° |
| 2026-05-05 00:24 | 45.70475 | -73.14401 | 7629 ft | 239 kts | 256° |
| 2026-05-05 00:24 | 45.70067 | -73.16658 | 7306 ft | 237 kts | 255° |
| 2026-05-05 00:24 | 45.69648 | -73.18953 | 6974 ft | 235 kts | 255° |
| 2026-05-05 00:24 | 45.69236 | -73.21210 | 6640 ft | 233 kts | 255° |
| 2026-05-05 00:25 | 45.68829 | -73.23448 | 6316 ft | 232 kts | 256° |
| 2026-05-05 00:25 | 45.68426 | -73.25669 | 5980 ft | 230 kts | 255° |
| 2026-05-05 00:25 | 45.68020 | -73.27866 | 5650 ft | 228 kts | 255° |
| 2026-05-05 00:25 | 45.67622 | -73.30046 | 5329 ft | 225 kts | 255° |
| 2026-05-05 00:26 | 45.67225 | -73.32196 | 5023 ft | 222 kts | 255° |
| 2026-05-05 00:26 | 45.66837 | -73.34322 | 4703 ft | 220 kts | 255° |
| 2026-05-05 00:26 | 45.66456 | -73.36432 | 4387 ft | 219 kts | 255° |
| 2026-05-05 00:26 | 45.66070 | -73.38547 | 4070 ft | 220 kts | 255° |
| 2026-05-05 00:27 | 45.65679 | -73.40662 | 3755 ft | 219 kts | 254° |
| 2026-05-05 00:27 | 45.65294 | -73.42764 | 3445 ft | 218 kts | 254° |
| 2026-05-05 00:27 | 45.64907 | -73.44869 | 3133 ft | 219 kts | 253° |
| 2026-05-05 00:27 | 45.64529 | -73.46930 | 2983 ft | 207 kts | 253° |
| 2026-05-05 00:28 | 45.64170 | -73.48868 | 2960 ft | 200 kts | 253° |
| 2026-05-05 00:28 | 45.63817 | -73.50789 | 2979 ft | 200 kts | 252° |
| 2026-05-05 00:28 | 45.63340 | -73.52622 | 2990 ft | 200 kts | 243° |
| 2026-05-05 00:28 | 45.62618 | -73.54320 | 2997 ft | 200 kts | 234° |
| 2026-05-05 00:29 | 45.61769 | -73.55777 | 2991 ft | 182 kts | 228° |
| 2026-05-05 00:29 | 45.60893 | -73.57041 | 2989 ft | 178 kts | 226° |
| 2026-05-05 00:29 | 45.59993 | -73.58255 | 2990 ft | 173 kts | 225° |
| 2026-05-05 00:29 | 45.59175 | -73.59338 | 2972 ft | 151 kts | 225° |
| 2026-05-05 00:30 | 45.58434 | -73.60315 | 2804 ft | 139 kts | 225° |
| 2026-05-05 00:30 | 45.57741 | -73.61228 | 2623 ft | 135 kts | 225° |
| 2026-05-05 00:30 | 45.57051 | -73.62136 | 2455 ft | 135 kts | 225° |
| 2026-05-05 00:30 | 45.56362 | -73.63043 | 2270 ft | 135 kts | 224° |
| 2026-05-05 00:31 | 45.55669 | -73.63954 | 2087 ft | 136 kts | 223° |
| 2026-05-05 00:31 | 45.54969 | -73.64874 | 1929 ft | 138 kts | 223° |
| 2026-05-05 00:31 | 45.54263 | -73.65802 | 1751 ft | 138 kts | 223° |
| 2026-05-05 00:31 | 45.53558 | -73.66728 | 1565 ft | 134 kts | 223° |
| 2026-05-05 00:32 | 45.52909 | -73.67581 | 1385 ft | 125 kts | 222° |
| 2026-05-05 00:32 | 45.52270 | -73.68421 | 1206 ft | 125 kts | 222° |
| 2026-05-05 00:32 | 45.51626 | -73.69265 | 1031 ft | 126 kts | 222° |
| 2026-05-05 00:32 | 45.50975 | -73.70118 | 841 ft | 129 kts | 222° |
| 2026-05-05 00:33 | 45.50313 | -73.70990 | 694 ft | 130 kts | 221° |
| 2026-05-05 00:33 | 45.49646 | -73.71869 | 530 ft | 131 kts | 221° |
| 2026-05-05 00:33 | 45.48974 | -73.72747 | 345 ft | 131 kts | 220° |
| 2026-05-05 00:33 | 45.48303 | -73.73631 | 178 ft | 132 kts | 220° |
| 2026-05-05 00:34 | 45.47646 | -73.74490 | 115 ft | 120 kts | 221° |
| 2026-05-05 00:34 | 45.47150 | -73.75138 | 118 ft | 72 kts | 222° |
| 2026-05-05 00:34 | 45.46959 | -73.75385 | 113 ft | 35 kts | 223° |
| 2026-05-05 00:34 | 45.46831 | -73.75531 | 113 ft | 20 kts | 207° |
| 2026-05-05 00:35 | 45.46707 | -73.75601 | 113 ft | 15 kts | 192° |
| 2026-05-05 00:35 | 45.46618 | -73.75628 | 111 ft | 9 kts | 192° |
| 2026-05-05 00:35 | 45.46552 | -73.75649 | 111 ft | 11 kts | 193° |
| 2026-05-05 00:35 | 45.46463 | -73.75677 | 110 ft | 15 kts | 192° |
| 2026-05-05 00:36 | 45.46349 | -73.75715 | 109 ft | 14 kts | 192° |
| 2026-05-05 00:36 | 45.46243 | -73.75729 | 109 ft | 16 kts | 177° |
| 2026-05-05 00:36 | 45.46154 | -73.75723 | 107 ft | 11 kts | 178° |
| 2026-05-05 00:36 | 45.46084 | -73.75725 | 109 ft | 10 kts | 192° |
| 2026-05-05 00:37 | 45.46030 | -73.75741 | 110 ft | 8 kts | 181° |
| 2026-05-05 00:37 | 45.45984 | -73.75738 | 110 ft | 4 kts | 176° |
| 2026-05-05 00:37 | 45.45975 | -73.75737 | 110 ft | 0 kts | 176° |
| 2026-05-05 00:37 | 45.45974 | -73.75737 | 110 ft | 0 kts | 176° |